<?xml version="1.0" encoding="UTF-8" standalone="no" ?>
<gpx xmlns="http://www.topografix.com/GPX/1/1" xmlns:xsi="http://www.w3.org/2001/XMLSchema-instance" xsi:schemaLocation="http://www.topografix.com/GPX/1/1 http://www.topografix.com/GPX/1/1/gpx.xsd" version="1.1" creator="VisuGPX - https://www.visugpx.com">
  <metadata>
    <name>Balade en haute vallée de la bièvre</name>
    <desc><![CDATA[Balade en haute vallée de la bièvre]]></desc>
  </metadata>
  <trk>
    <name><![CDATA[BIEVREN-12 181229]]></name>
    <trkseg>
      <trkpt lat="48.78668" lon="2.04484">
        <ele>129.92</ele>
        <time>2012-06-17T12:58:54Z</time>
      </trkpt>
      <trkpt lat="48.78668" lon="2.04484">
        <ele>132.8</ele>
        <time>2012-06-17T12:58:56Z</time>
      </trkpt>
      <trkpt lat="48.78666" lon="2.04487">
        <ele>136.16</ele>
        <time>2012-06-17T12:58:59Z</time>
      </trkpt>
      <trkpt lat="48.78664" lon="2.04488">
        <ele>140.01</ele>
        <time>2012-06-17T12:59:02Z</time>
      </trkpt>
      <trkpt lat="48.78661" lon="2.0449">
        <ele>142.41</ele>
        <time>2012-06-17T12:59:05Z</time>
      </trkpt>
      <trkpt lat="48.7866" lon="2.04491">
        <ele>144.34</ele>
        <time>2012-06-17T12:59:07Z</time>
      </trkpt>
      <trkpt lat="48.78659" lon="2.04491">
        <ele>147.22</ele>
        <time>2012-06-17T12:59:11Z</time>
      </trkpt>
      <trkpt lat="48.78658" lon="2.0449">
        <ele>150.58</ele>
        <time>2012-06-17T12:59:15Z</time>
      </trkpt>
      <trkpt lat="48.78657" lon="2.04491">
        <ele>152.51</ele>
        <time>2012-06-17T12:59:20Z</time>
      </trkpt>
      <trkpt lat="48.78663" lon="2.04482">
        <ele>153.47</ele>
        <time>2012-06-17T13:04:07Z</time>
      </trkpt>
      <trkpt lat="48.78664" lon="2.04483">
        <ele>152.99</ele>
        <time>2012-06-17T13:04:08Z</time>
      </trkpt>
      <trkpt lat="48.78653" lon="2.04505">
        <ele>152.99</ele>
        <time>2012-06-17T13:04:35Z</time>
      </trkpt>
      <trkpt lat="48.78647" lon="2.04496">
        <ele>155.87</ele>
        <time>2012-06-17T13:04:51Z</time>
      </trkpt>
      <trkpt lat="48.78646" lon="2.04496">
        <ele>159.72</ele>
        <time>2012-06-17T13:04:54Z</time>
      </trkpt>
      <trkpt lat="48.78645" lon="2.04496">
        <ele>163.56</ele>
        <time>2012-06-17T13:04:58Z</time>
      </trkpt>
      <trkpt lat="48.78643" lon="2.04497">
        <ele>166.93</ele>
        <time>2012-06-17T13:05:02Z</time>
      </trkpt>
      <trkpt lat="48.78642" lon="2.04499">
        <ele>169.81</ele>
        <time>2012-06-17T13:05:06Z</time>
      </trkpt>
      <trkpt lat="48.78641" lon="2.045">
        <ele>172.69</ele>
        <time>2012-06-17T13:05:10Z</time>
      </trkpt>
      <trkpt lat="48.7864" lon="2.04505">
        <ele>175.1</ele>
        <time>2012-06-17T13:05:17Z</time>
      </trkpt>
      <trkpt lat="48.78639" lon="2.0451">
        <ele>177.98</ele>
        <time>2012-06-17T13:05:27Z</time>
      </trkpt>
      <trkpt lat="48.78636" lon="2.04501">
        <ele>181.35</ele>
        <time>2012-06-17T13:05:45Z</time>
      </trkpt>
      <trkpt lat="48.78637" lon="2.045">
        <ele>183.75</ele>
        <time>2012-06-17T13:06:11Z</time>
      </trkpt>
      <trkpt lat="48.78637" lon="2.045">
        <ele>184.71</ele>
        <time>2012-06-17T13:06:41Z</time>
      </trkpt>
      <trkpt lat="48.78637" lon="2.04498">
        <ele>184.23</ele>
        <time>2012-06-17T13:07:15Z</time>
      </trkpt>
      <trkpt lat="48.78637" lon="2.04498">
        <ele>184.71</ele>
        <time>2012-06-17T13:07:43Z</time>
      </trkpt>
      <trkpt lat="48.78636" lon="2.045">
        <ele>184.71</ele>
        <time>2012-06-17T13:08:09Z</time>
      </trkpt>
      <trkpt lat="48.78636" lon="2.045">
        <ele>184.71</ele>
        <time>2012-06-17T13:08:42Z</time>
      </trkpt>
      <trkpt lat="48.78636" lon="2.04501">
        <ele>184.71</ele>
        <time>2012-06-17T13:09:12Z</time>
      </trkpt>
      <trkpt lat="48.78636" lon="2.04501">
        <ele>184.71</ele>
        <time>2012-06-17T13:09:41Z</time>
      </trkpt>
      <trkpt lat="48.78636" lon="2.04501">
        <ele>185.19</ele>
        <time>2012-06-17T13:10:15Z</time>
      </trkpt>
      <trkpt lat="48.78636" lon="2.04501">
        <ele>185.67</ele>
        <time>2012-06-17T13:10:47Z</time>
      </trkpt>
      <trkpt lat="48.78637" lon="2.045">
        <ele>185.19</ele>
        <time>2012-06-17T13:11:11Z</time>
      </trkpt>
      <trkpt lat="48.78637" lon="2.045">
        <ele>185.19</ele>
        <time>2012-06-17T13:11:42Z</time>
      </trkpt>
      <trkpt lat="48.7864" lon="2.04497">
        <ele>184.71</ele>
        <time>2012-06-17T13:12:13Z</time>
      </trkpt>
      <trkpt lat="48.7864" lon="2.04495">
        <ele>185.19</ele>
        <time>2012-06-17T13:12:41Z</time>
      </trkpt>
      <trkpt lat="48.7864" lon="2.04495">
        <ele>184.71</ele>
        <time>2012-06-17T13:13:07Z</time>
      </trkpt>
      <trkpt lat="48.7864" lon="2.04495">
        <ele>185.19</ele>
        <time>2012-06-17T13:13:38Z</time>
      </trkpt>
      <trkpt lat="48.7864" lon="2.04495">
        <ele>185.19</ele>
        <time>2012-06-17T13:14:05Z</time>
      </trkpt>
      <trkpt lat="48.7864" lon="2.04494">
        <ele>185.19</ele>
        <time>2012-06-17T13:14:30Z</time>
      </trkpt>
      <trkpt lat="48.7864" lon="2.04494">
        <ele>185.67</ele>
        <time>2012-06-17T13:14:56Z</time>
      </trkpt>
      <trkpt lat="48.7864" lon="2.04496">
        <ele>186.15</ele>
        <time>2012-06-17T13:15:02Z</time>
      </trkpt>
      <trkpt lat="48.78639" lon="2.04495">
        <ele>186.15</ele>
        <time>2012-06-17T13:15:12Z</time>
      </trkpt>
      <trkpt lat="48.78636" lon="2.045">
        <ele>186.15</ele>
        <time>2012-06-17T13:15:20Z</time>
      </trkpt>
      <trkpt lat="48.78633" lon="2.04505">
        <ele>185.67</ele>
        <time>2012-06-17T13:15:27Z</time>
      </trkpt>
      <trkpt lat="48.78619" lon="2.04502">
        <ele>185.67</ele>
        <time>2012-06-17T13:15:39Z</time>
      </trkpt>
      <trkpt lat="48.78617" lon="2.04509">
        <ele>185.19</ele>
        <time>2012-06-17T13:15:49Z</time>
      </trkpt>
      <trkpt lat="48.78609" lon="2.04519">
        <ele>185.67</ele>
        <time>2012-06-17T13:16:00Z</time>
      </trkpt>
      <trkpt lat="48.78607" lon="2.04525">
        <ele>185.67</ele>
        <time>2012-06-17T13:16:03Z</time>
      </trkpt>
      <trkpt lat="48.78607" lon="2.04531">
        <ele>184.71</ele>
        <time>2012-06-17T13:16:06Z</time>
      </trkpt>
      <trkpt lat="48.78604" lon="2.04535">
        <ele>185.19</ele>
        <time>2012-06-17T13:16:08Z</time>
      </trkpt>
      <trkpt lat="48.78603" lon="2.0454">
        <ele>185.19</ele>
        <time>2012-06-17T13:16:11Z</time>
      </trkpt>
      <trkpt lat="48.78601" lon="2.04544">
        <ele>185.19</ele>
        <time>2012-06-17T13:16:13Z</time>
      </trkpt>
      <trkpt lat="48.78597" lon="2.04553">
        <ele>185.19</ele>
        <time>2012-06-17T13:16:20Z</time>
      </trkpt>
      <trkpt lat="48.78598" lon="2.04556">
        <ele>184.71</ele>
        <time>2012-06-17T13:16:22Z</time>
      </trkpt>
      <trkpt lat="48.78594" lon="2.04567">
        <ele>184.71</ele>
        <time>2012-06-17T13:16:29Z</time>
      </trkpt>
      <trkpt lat="48.78578" lon="2.04575">
        <ele>185.19</ele>
        <time>2012-06-17T13:16:38Z</time>
      </trkpt>
      <trkpt lat="48.78564" lon="2.04591">
        <ele>185.67</ele>
        <time>2012-06-17T13:16:49Z</time>
      </trkpt>
      <trkpt lat="48.78556" lon="2.04602">
        <ele>185.19</ele>
        <time>2012-06-17T13:16:56Z</time>
      </trkpt>
      <trkpt lat="48.78551" lon="2.04612">
        <ele>185.19</ele>
        <time>2012-06-17T13:17:09Z</time>
      </trkpt>
      <trkpt lat="48.78551" lon="2.04612">
        <ele>185.19</ele>
        <time>2012-06-17T13:17:20Z</time>
      </trkpt>
      <trkpt lat="48.78552" lon="2.0462">
        <ele>185.67</ele>
        <time>2012-06-17T13:17:25Z</time>
      </trkpt>
      <trkpt lat="48.78559" lon="2.0464">
        <ele>184.71</ele>
        <time>2012-06-17T13:17:40Z</time>
      </trkpt>
      <trkpt lat="48.7856" lon="2.04643">
        <ele>185.19</ele>
        <time>2012-06-17T13:17:42Z</time>
      </trkpt>
      <trkpt lat="48.78563" lon="2.04656">
        <ele>184.71</ele>
        <time>2012-06-17T13:17:53Z</time>
      </trkpt>
      <trkpt lat="48.78565" lon="2.04661">
        <ele>184.71</ele>
        <time>2012-06-17T13:17:56Z</time>
      </trkpt>
      <trkpt lat="48.78575" lon="2.04675">
        <ele>184.71</ele>
        <time>2012-06-17T13:18:09Z</time>
      </trkpt>
      <trkpt lat="48.78579" lon="2.04681">
        <ele>183.75</ele>
        <time>2012-06-17T13:18:21Z</time>
      </trkpt>
      <trkpt lat="48.78578" lon="2.04688">
        <ele>183.75</ele>
        <time>2012-06-17T13:18:24Z</time>
      </trkpt>
      <trkpt lat="48.78574" lon="2.04695">
        <ele>184.23</ele>
        <time>2012-06-17T13:18:31Z</time>
      </trkpt>
      <trkpt lat="48.78572" lon="2.04699">
        <ele>183.75</ele>
        <time>2012-06-17T13:18:33Z</time>
      </trkpt>
      <trkpt lat="48.78561" lon="2.04706">
        <ele>184.23</ele>
        <time>2012-06-17T13:18:45Z</time>
      </trkpt>
      <trkpt lat="48.78554" lon="2.04701">
        <ele>183.75</ele>
        <time>2012-06-17T13:18:54Z</time>
      </trkpt>
      <trkpt lat="48.78548" lon="2.04687">
        <ele>183.75</ele>
        <time>2012-06-17T13:19:03Z</time>
      </trkpt>
      <trkpt lat="48.78539" lon="2.0467">
        <ele>184.23</ele>
        <time>2012-06-17T13:19:14Z</time>
      </trkpt>
      <trkpt lat="48.78534" lon="2.04666">
        <ele>184.23</ele>
        <time>2012-06-17T13:19:19Z</time>
      </trkpt>
      <trkpt lat="48.78518" lon="2.04675">
        <ele>184.23</ele>
        <time>2012-06-17T13:19:32Z</time>
      </trkpt>
      <trkpt lat="48.78518" lon="2.04676">
        <ele>183.75</ele>
        <time>2012-06-17T13:19:33Z</time>
      </trkpt>
      <trkpt lat="48.78507" lon="2.04687">
        <ele>184.71</ele>
        <time>2012-06-17T13:19:43Z</time>
      </trkpt>
      <trkpt lat="48.78499" lon="2.04699">
        <ele>185.19</ele>
        <time>2012-06-17T13:19:51Z</time>
      </trkpt>
      <trkpt lat="48.78496" lon="2.04702">
        <ele>185.19</ele>
        <time>2012-06-17T13:19:55Z</time>
      </trkpt>
      <trkpt lat="48.78483" lon="2.04719">
        <ele>185.19</ele>
        <time>2012-06-17T13:20:09Z</time>
      </trkpt>
      <trkpt lat="48.78477" lon="2.04726">
        <ele>185.19</ele>
        <time>2012-06-17T13:20:14Z</time>
      </trkpt>
      <trkpt lat="48.78466" lon="2.04737">
        <ele>184.71</ele>
        <time>2012-06-17T13:20:26Z</time>
      </trkpt>
      <trkpt lat="48.78456" lon="2.0475">
        <ele>184.23</ele>
        <time>2012-06-17T13:20:35Z</time>
      </trkpt>
      <trkpt lat="48.78451" lon="2.04755">
        <ele>184.23</ele>
        <time>2012-06-17T13:20:40Z</time>
      </trkpt>
      <trkpt lat="48.78435" lon="2.04775">
        <ele>184.71</ele>
        <time>2012-06-17T13:20:55Z</time>
      </trkpt>
      <trkpt lat="48.78422" lon="2.04789">
        <ele>183.75</ele>
        <time>2012-06-17T13:21:09Z</time>
      </trkpt>
      <trkpt lat="48.78417" lon="2.04796">
        <ele>183.27</ele>
        <time>2012-06-17T13:21:15Z</time>
      </trkpt>
      <trkpt lat="48.78405" lon="2.04809">
        <ele>183.75</ele>
        <time>2012-06-17T13:21:28Z</time>
      </trkpt>
      <trkpt lat="48.78403" lon="2.04812">
        <ele>183.27</ele>
        <time>2012-06-17T13:21:31Z</time>
      </trkpt>
      <trkpt lat="48.784" lon="2.04815">
        <ele>183.27</ele>
        <time>2012-06-17T13:21:35Z</time>
      </trkpt>
      <trkpt lat="48.78395" lon="2.04815">
        <ele>183.75</ele>
        <time>2012-06-17T13:21:50Z</time>
      </trkpt>
      <trkpt lat="48.78393" lon="2.04814">
        <ele>183.27</ele>
        <time>2012-06-17T13:21:55Z</time>
      </trkpt>
      <trkpt lat="48.78391" lon="2.04813">
        <ele>183.27</ele>
        <time>2012-06-17T13:21:57Z</time>
      </trkpt>
      <trkpt lat="48.78388" lon="2.04811">
        <ele>183.75</ele>
        <time>2012-06-17T13:22:00Z</time>
      </trkpt>
      <trkpt lat="48.78386" lon="2.0481">
        <ele>183.27</ele>
        <time>2012-06-17T13:22:02Z</time>
      </trkpt>
      <trkpt lat="48.78384" lon="2.04809">
        <ele>183.27</ele>
        <time>2012-06-17T13:22:04Z</time>
      </trkpt>
      <trkpt lat="48.78365" lon="2.04803">
        <ele>181.35</ele>
        <time>2012-06-17T13:22:22Z</time>
      </trkpt>
      <trkpt lat="48.7835" lon="2.04799">
        <ele>180.87</ele>
        <time>2012-06-17T13:22:37Z</time>
      </trkpt>
      <trkpt lat="48.78335" lon="2.04796">
        <ele>180.38</ele>
        <time>2012-06-17T13:22:50Z</time>
      </trkpt>
      <trkpt lat="48.78331" lon="2.04804">
        <ele>180.38</ele>
        <time>2012-06-17T13:22:55Z</time>
      </trkpt>
      <trkpt lat="48.78323" lon="2.04807">
        <ele>180.38</ele>
        <time>2012-06-17T13:23:04Z</time>
      </trkpt>
      <trkpt lat="48.7832" lon="2.04806">
        <ele>180.87</ele>
        <time>2012-06-17T13:23:06Z</time>
      </trkpt>
      <trkpt lat="48.78306" lon="2.04802">
        <ele>178.94</ele>
        <time>2012-06-17T13:23:21Z</time>
      </trkpt>
      <trkpt lat="48.78304" lon="2.04801">
        <ele>179.42</ele>
        <time>2012-06-17T13:23:24Z</time>
      </trkpt>
      <trkpt lat="48.78301" lon="2.048">
        <ele>179.42</ele>
        <time>2012-06-17T13:23:27Z</time>
      </trkpt>
      <trkpt lat="48.78291" lon="2.04803">
        <ele>178.46</ele>
        <time>2012-06-17T13:23:35Z</time>
      </trkpt>
      <trkpt lat="48.78274" lon="2.048">
        <ele>178.94</ele>
        <time>2012-06-17T13:23:50Z</time>
      </trkpt>
      <trkpt lat="48.78273" lon="2.04799">
        <ele>178.46</ele>
        <time>2012-06-17T13:23:52Z</time>
      </trkpt>
      <trkpt lat="48.78263" lon="2.04796">
        <ele>178.94</ele>
        <time>2012-06-17T13:24:00Z</time>
      </trkpt>
      <trkpt lat="48.78258" lon="2.04794">
        <ele>178.94</ele>
        <time>2012-06-17T13:24:04Z</time>
      </trkpt>
      <trkpt lat="48.78252" lon="2.04793">
        <ele>177.5</ele>
        <time>2012-06-17T13:24:10Z</time>
      </trkpt>
      <trkpt lat="48.78241" lon="2.0479">
        <ele>176.54</ele>
        <time>2012-06-17T13:24:20Z</time>
      </trkpt>
      <trkpt lat="48.78231" lon="2.04793">
        <ele>175.58</ele>
        <time>2012-06-17T13:24:31Z</time>
      </trkpt>
      <trkpt lat="48.78227" lon="2.04792">
        <ele>175.1</ele>
        <time>2012-06-17T13:24:34Z</time>
      </trkpt>
      <trkpt lat="48.7822" lon="2.04792">
        <ele>175.58</ele>
        <time>2012-06-17T13:24:40Z</time>
      </trkpt>
      <trkpt lat="48.78218" lon="2.04798">
        <ele>175.1</ele>
        <time>2012-06-17T13:24:45Z</time>
      </trkpt>
      <trkpt lat="48.78212" lon="2.048">
        <ele>175.1</ele>
        <time>2012-06-17T13:24:51Z</time>
      </trkpt>
      <trkpt lat="48.78206" lon="2.048">
        <ele>174.62</ele>
        <time>2012-06-17T13:24:55Z</time>
      </trkpt>
      <trkpt lat="48.78201" lon="2.04801">
        <ele>175.1</ele>
        <time>2012-06-17T13:24:58Z</time>
      </trkpt>
      <trkpt lat="48.78188" lon="2.04793">
        <ele>174.14</ele>
        <time>2012-06-17T13:25:12Z</time>
      </trkpt>
      <trkpt lat="48.78184" lon="2.04791">
        <ele>173.66</ele>
        <time>2012-06-17T13:25:15Z</time>
      </trkpt>
      <trkpt lat="48.78167" lon="2.04792">
        <ele>174.14</ele>
        <time>2012-06-17T13:25:28Z</time>
      </trkpt>
      <trkpt lat="48.78153" lon="2.04793">
        <ele>173.66</ele>
        <time>2012-06-17T13:25:39Z</time>
      </trkpt>
      <trkpt lat="48.78148" lon="2.0479">
        <ele>173.17</ele>
        <time>2012-06-17T13:25:43Z</time>
      </trkpt>
      <trkpt lat="48.78145" lon="2.0479">
        <ele>173.66</ele>
        <time>2012-06-17T13:25:46Z</time>
      </trkpt>
      <trkpt lat="48.78134" lon="2.04788">
        <ele>171.73</ele>
        <time>2012-06-17T13:25:57Z</time>
      </trkpt>
      <trkpt lat="48.78122" lon="2.04784">
        <ele>172.21</ele>
        <time>2012-06-17T13:26:08Z</time>
      </trkpt>
      <trkpt lat="48.78115" lon="2.04783">
        <ele>170.77</ele>
        <time>2012-06-17T13:26:17Z</time>
      </trkpt>
      <trkpt lat="48.78108" lon="2.04783">
        <ele>168.85</ele>
        <time>2012-06-17T13:26:27Z</time>
      </trkpt>
      <trkpt lat="48.78107" lon="2.04789">
        <ele>168.85</ele>
        <time>2012-06-17T13:26:31Z</time>
      </trkpt>
      <trkpt lat="48.78106" lon="2.04795">
        <ele>168.85</ele>
        <time>2012-06-17T13:26:35Z</time>
      </trkpt>
      <trkpt lat="48.78099" lon="2.04816">
        <ele>168.85</ele>
        <time>2012-06-17T13:26:48Z</time>
      </trkpt>
      <trkpt lat="48.78098" lon="2.04823">
        <ele>168.85</ele>
        <time>2012-06-17T13:26:53Z</time>
      </trkpt>
      <trkpt lat="48.78097" lon="2.04822">
        <ele>168.85</ele>
        <time>2012-06-17T13:26:56Z</time>
      </trkpt>
      <trkpt lat="48.78096" lon="2.04824">
        <ele>168.37</ele>
        <time>2012-06-17T13:26:58Z</time>
      </trkpt>
      <trkpt lat="48.78094" lon="2.04823">
        <ele>168.37</ele>
        <time>2012-06-17T13:27:00Z</time>
      </trkpt>
      <trkpt lat="48.78092" lon="2.04823">
        <ele>167.89</ele>
        <time>2012-06-17T13:27:02Z</time>
      </trkpt>
      <trkpt lat="48.78091" lon="2.04821">
        <ele>168.85</ele>
        <time>2012-06-17T13:27:03Z</time>
      </trkpt>
      <trkpt lat="48.78089" lon="2.04821">
        <ele>168.85</ele>
        <time>2012-06-17T13:27:04Z</time>
      </trkpt>
      <trkpt lat="48.78088" lon="2.0482">
        <ele>168.85</ele>
        <time>2012-06-17T13:27:06Z</time>
      </trkpt>
      <trkpt lat="48.78075" lon="2.04819">
        <ele>168.85</ele>
        <time>2012-06-17T13:27:14Z</time>
      </trkpt>
      <trkpt lat="48.78063" lon="2.04817">
        <ele>168.85</ele>
        <time>2012-06-17T13:27:26Z</time>
      </trkpt>
      <trkpt lat="48.7806" lon="2.04818">
        <ele>167.89</ele>
        <time>2012-06-17T13:27:38Z</time>
      </trkpt>
      <trkpt lat="48.78058" lon="2.04817">
        <ele>167.89</ele>
        <time>2012-06-17T13:27:51Z</time>
      </trkpt>
      <trkpt lat="48.78052" lon="2.04821">
        <ele>166.93</ele>
        <time>2012-06-17T13:27:54Z</time>
      </trkpt>
      <trkpt lat="48.78045" lon="2.04836">
        <ele>166.45</ele>
        <time>2012-06-17T13:28:06Z</time>
      </trkpt>
      <trkpt lat="48.78044" lon="2.04838">
        <ele>165.96</ele>
        <time>2012-06-17T13:28:08Z</time>
      </trkpt>
      <trkpt lat="48.78039" lon="2.0485">
        <ele>166.45</ele>
        <time>2012-06-17T13:28:17Z</time>
      </trkpt>
      <trkpt lat="48.78035" lon="2.04859">
        <ele>166.93</ele>
        <time>2012-06-17T13:28:28Z</time>
      </trkpt>
      <trkpt lat="48.78034" lon="2.04862">
        <ele>166.93</ele>
        <time>2012-06-17T13:28:30Z</time>
      </trkpt>
      <trkpt lat="48.78028" lon="2.04882">
        <ele>166.93</ele>
        <time>2012-06-17T13:28:38Z</time>
      </trkpt>
      <trkpt lat="48.78027" lon="2.04886">
        <ele>166.93</ele>
        <time>2012-06-17T13:28:40Z</time>
      </trkpt>
      <trkpt lat="48.78026" lon="2.04891">
        <ele>166.93</ele>
        <time>2012-06-17T13:28:43Z</time>
      </trkpt>
      <trkpt lat="48.78023" lon="2.04898">
        <ele>167.41</ele>
        <time>2012-06-17T13:28:46Z</time>
      </trkpt>
      <trkpt lat="48.78015" lon="2.04905">
        <ele>166.93</ele>
        <time>2012-06-17T13:28:53Z</time>
      </trkpt>
      <trkpt lat="48.78007" lon="2.04899">
        <ele>166.45</ele>
        <time>2012-06-17T13:29:05Z</time>
      </trkpt>
      <trkpt lat="48.78007" lon="2.04905">
        <ele>166.45</ele>
        <time>2012-06-17T13:29:12Z</time>
      </trkpt>
      <trkpt lat="48.78013" lon="2.04919">
        <ele>166.93</ele>
        <time>2012-06-17T13:29:22Z</time>
      </trkpt>
      <trkpt lat="48.78014" lon="2.04922">
        <ele>166.45</ele>
        <time>2012-06-17T13:29:24Z</time>
      </trkpt>
      <trkpt lat="48.78011" lon="2.04926">
        <ele>166.45</ele>
        <time>2012-06-17T13:29:27Z</time>
      </trkpt>
      <trkpt lat="48.77999" lon="2.04934">
        <ele>165.48</ele>
        <time>2012-06-17T13:29:40Z</time>
      </trkpt>
      <trkpt lat="48.77996" lon="2.04937">
        <ele>165</ele>
        <time>2012-06-17T13:29:43Z</time>
      </trkpt>
      <trkpt lat="48.77992" lon="2.04956">
        <ele>164.04</ele>
        <time>2012-06-17T13:29:53Z</time>
      </trkpt>
      <trkpt lat="48.77991" lon="2.04959">
        <ele>163.56</ele>
        <time>2012-06-17T13:29:55Z</time>
      </trkpt>
      <trkpt lat="48.7799" lon="2.04982">
        <ele>162.6</ele>
        <time>2012-06-17T13:30:08Z</time>
      </trkpt>
      <trkpt lat="48.77983" lon="2.05006">
        <ele>162.6</ele>
        <time>2012-06-17T13:30:22Z</time>
      </trkpt>
      <trkpt lat="48.77981" lon="2.05012">
        <ele>162.6</ele>
        <time>2012-06-17T13:30:25Z</time>
      </trkpt>
      <trkpt lat="48.77979" lon="2.05023">
        <ele>161.64</ele>
        <time>2012-06-17T13:30:34Z</time>
      </trkpt>
      <trkpt lat="48.77979" lon="2.05029">
        <ele>162.12</ele>
        <time>2012-06-17T13:30:36Z</time>
      </trkpt>
      <trkpt lat="48.77977" lon="2.05046">
        <ele>161.64</ele>
        <time>2012-06-17T13:30:46Z</time>
      </trkpt>
      <trkpt lat="48.77974" lon="2.05072">
        <ele>160.68</ele>
        <time>2012-06-17T13:30:59Z</time>
      </trkpt>
      <trkpt lat="48.77969" lon="2.05093">
        <ele>160.2</ele>
        <time>2012-06-17T13:31:11Z</time>
      </trkpt>
      <trkpt lat="48.77967" lon="2.05104">
        <ele>159.72</ele>
        <time>2012-06-17T13:31:19Z</time>
      </trkpt>
      <trkpt lat="48.77966" lon="2.0511">
        <ele>159.72</ele>
        <time>2012-06-17T13:31:23Z</time>
      </trkpt>
      <trkpt lat="48.77964" lon="2.05138">
        <ele>159.72</ele>
        <time>2012-06-17T13:31:40Z</time>
      </trkpt>
      <trkpt lat="48.77964" lon="2.05139">
        <ele>159.72</ele>
        <time>2012-06-17T13:31:41Z</time>
      </trkpt>
      <trkpt lat="48.77964" lon="2.05149">
        <ele>160.2</ele>
        <time>2012-06-17T13:31:46Z</time>
      </trkpt>
      <trkpt lat="48.77963" lon="2.05152">
        <ele>159.72</ele>
        <time>2012-06-17T13:31:48Z</time>
      </trkpt>
      <trkpt lat="48.77964" lon="2.05182">
        <ele>158.75</ele>
        <time>2012-06-17T13:32:04Z</time>
      </trkpt>
      <trkpt lat="48.77964" lon="2.05198">
        <ele>159.24</ele>
        <time>2012-06-17T13:32:12Z</time>
      </trkpt>
      <trkpt lat="48.77965" lon="2.05225">
        <ele>158.75</ele>
        <time>2012-06-17T13:32:30Z</time>
      </trkpt>
      <trkpt lat="48.77965" lon="2.05232">
        <ele>158.75</ele>
        <time>2012-06-17T13:32:34Z</time>
      </trkpt>
      <trkpt lat="48.77954" lon="2.05247">
        <ele>159.24</ele>
        <time>2012-06-17T13:32:48Z</time>
      </trkpt>
      <trkpt lat="48.77949" lon="2.05257">
        <ele>159.72</ele>
        <time>2012-06-17T13:32:54Z</time>
      </trkpt>
      <trkpt lat="48.77947" lon="2.05267">
        <ele>159.72</ele>
        <time>2012-06-17T13:33:00Z</time>
      </trkpt>
      <trkpt lat="48.77944" lon="2.05279">
        <ele>159.72</ele>
        <time>2012-06-17T13:33:07Z</time>
      </trkpt>
      <trkpt lat="48.77942" lon="2.05289">
        <ele>159.72</ele>
        <time>2012-06-17T13:33:12Z</time>
      </trkpt>
      <trkpt lat="48.77941" lon="2.05293">
        <ele>159.24</ele>
        <time>2012-06-17T13:33:14Z</time>
      </trkpt>
      <trkpt lat="48.77935" lon="2.05316">
        <ele>158.75</ele>
        <time>2012-06-17T13:33:31Z</time>
      </trkpt>
      <trkpt lat="48.77933" lon="2.05344">
        <ele>158.27</ele>
        <time>2012-06-17T13:33:47Z</time>
      </trkpt>
      <trkpt lat="48.77935" lon="2.05352">
        <ele>157.31</ele>
        <time>2012-06-17T13:34:03Z</time>
      </trkpt>
      <trkpt lat="48.77935" lon="2.05352">
        <ele>158.27</ele>
        <time>2012-06-17T13:34:24Z</time>
      </trkpt>
      <trkpt lat="48.77935" lon="2.05353">
        <ele>157.79</ele>
        <time>2012-06-17T13:34:55Z</time>
      </trkpt>
      <trkpt lat="48.77941" lon="2.0537">
        <ele>157.31</ele>
        <time>2012-06-17T13:35:09Z</time>
      </trkpt>
      <trkpt lat="48.77941" lon="2.05382">
        <ele>156.83</ele>
        <time>2012-06-17T13:35:17Z</time>
      </trkpt>
      <trkpt lat="48.77937" lon="2.05403">
        <ele>157.31</ele>
        <time>2012-06-17T13:35:31Z</time>
      </trkpt>
      <trkpt lat="48.7793" lon="2.05423">
        <ele>157.31</ele>
        <time>2012-06-17T13:35:47Z</time>
      </trkpt>
      <trkpt lat="48.77924" lon="2.0544">
        <ele>156.83</ele>
        <time>2012-06-17T13:36:01Z</time>
      </trkpt>
      <trkpt lat="48.77918" lon="2.05475">
        <ele>156.35</ele>
        <time>2012-06-17T13:36:19Z</time>
      </trkpt>
      <trkpt lat="48.77907" lon="2.05499">
        <ele>155.87</ele>
        <time>2012-06-17T13:36:32Z</time>
      </trkpt>
      <trkpt lat="48.779" lon="2.05522">
        <ele>155.87</ele>
        <time>2012-06-17T13:36:47Z</time>
      </trkpt>
      <trkpt lat="48.77892" lon="2.05541">
        <ele>154.91</ele>
        <time>2012-06-17T13:37:02Z</time>
      </trkpt>
      <trkpt lat="48.7788" lon="2.05559">
        <ele>154.91</ele>
        <time>2012-06-17T13:37:16Z</time>
      </trkpt>
      <trkpt lat="48.77871" lon="2.05572">
        <ele>153.95</ele>
        <time>2012-06-17T13:37:29Z</time>
      </trkpt>
      <trkpt lat="48.77865" lon="2.05584">
        <ele>153.95</ele>
        <time>2012-06-17T13:37:42Z</time>
      </trkpt>
      <trkpt lat="48.77856" lon="2.05596">
        <ele>154.43</ele>
        <time>2012-06-17T13:37:53Z</time>
      </trkpt>
      <trkpt lat="48.77855" lon="2.05605">
        <ele>155.39</ele>
        <time>2012-06-17T13:38:03Z</time>
      </trkpt>
      <trkpt lat="48.77853" lon="2.05614">
        <ele>155.39</ele>
        <time>2012-06-17T13:38:07Z</time>
      </trkpt>
      <trkpt lat="48.77851" lon="2.05623">
        <ele>154.91</ele>
        <time>2012-06-17T13:38:12Z</time>
      </trkpt>
      <trkpt lat="48.7785" lon="2.05625">
        <ele>154.43</ele>
        <time>2012-06-17T13:38:14Z</time>
      </trkpt>
      <trkpt lat="48.77848" lon="2.05635">
        <ele>153.95</ele>
        <time>2012-06-17T13:38:20Z</time>
      </trkpt>
      <trkpt lat="48.77848" lon="2.05639">
        <ele>153.47</ele>
        <time>2012-06-17T13:38:22Z</time>
      </trkpt>
      <trkpt lat="48.77849" lon="2.05661">
        <ele>153.47</ele>
        <time>2012-06-17T13:38:34Z</time>
      </trkpt>
      <trkpt lat="48.77849" lon="2.05663">
        <ele>152.99</ele>
        <time>2012-06-17T13:38:35Z</time>
      </trkpt>
      <trkpt lat="48.77854" lon="2.0569">
        <ele>153.95</ele>
        <time>2012-06-17T13:38:49Z</time>
      </trkpt>
      <trkpt lat="48.77856" lon="2.05699">
        <ele>154.91</ele>
        <time>2012-06-17T13:38:58Z</time>
      </trkpt>
      <trkpt lat="48.77858" lon="2.05719">
        <ele>156.35</ele>
        <time>2012-06-17T13:39:09Z</time>
      </trkpt>
      <trkpt lat="48.77859" lon="2.05731">
        <ele>156.35</ele>
        <time>2012-06-17T13:39:16Z</time>
      </trkpt>
      <trkpt lat="48.77853" lon="2.05749">
        <ele>155.39</ele>
        <time>2012-06-17T13:39:25Z</time>
      </trkpt>
      <trkpt lat="48.77855" lon="2.05762">
        <ele>154.91</ele>
        <time>2012-06-17T13:39:34Z</time>
      </trkpt>
      <trkpt lat="48.77849" lon="2.0578">
        <ele>154.91</ele>
        <time>2012-06-17T13:39:47Z</time>
      </trkpt>
      <trkpt lat="48.77848" lon="2.05786">
        <ele>155.39</ele>
        <time>2012-06-17T13:39:57Z</time>
      </trkpt>
      <trkpt lat="48.77846" lon="2.05808">
        <ele>154.91</ele>
        <time>2012-06-17T13:40:06Z</time>
      </trkpt>
      <trkpt lat="48.77847" lon="2.05823">
        <ele>154.91</ele>
        <time>2012-06-17T13:40:16Z</time>
      </trkpt>
      <trkpt lat="48.77854" lon="2.05851">
        <ele>153.95</ele>
        <time>2012-06-17T13:40:34Z</time>
      </trkpt>
      <trkpt lat="48.77853" lon="2.05863">
        <ele>152.99</ele>
        <time>2012-06-17T13:40:45Z</time>
      </trkpt>
      <trkpt lat="48.77848" lon="2.0588">
        <ele>153.47</ele>
        <time>2012-06-17T13:40:55Z</time>
      </trkpt>
      <trkpt lat="48.77847" lon="2.05892">
        <ele>153.47</ele>
        <time>2012-06-17T13:41:00Z</time>
      </trkpt>
      <trkpt lat="48.77849" lon="2.05906">
        <ele>152.51</ele>
        <time>2012-06-17T13:41:13Z</time>
      </trkpt>
      <trkpt lat="48.77848" lon="2.05911">
        <ele>152.51</ele>
        <time>2012-06-17T13:41:15Z</time>
      </trkpt>
      <trkpt lat="48.77846" lon="2.05937">
        <ele>152.51</ele>
        <time>2012-06-17T13:41:29Z</time>
      </trkpt>
      <trkpt lat="48.77846" lon="2.05946">
        <ele>152.99</ele>
        <time>2012-06-17T13:41:34Z</time>
      </trkpt>
      <trkpt lat="48.77848" lon="2.0596">
        <ele>154.43</ele>
        <time>2012-06-17T13:41:43Z</time>
      </trkpt>
      <trkpt lat="48.77848" lon="2.05963">
        <ele>154.91</ele>
        <time>2012-06-17T13:41:45Z</time>
      </trkpt>
      <trkpt lat="48.77845" lon="2.05976">
        <ele>154.91</ele>
        <time>2012-06-17T13:41:52Z</time>
      </trkpt>
      <trkpt lat="48.77847" lon="2.05983">
        <ele>155.87</ele>
        <time>2012-06-17T13:41:57Z</time>
      </trkpt>
      <trkpt lat="48.7785" lon="2.05992">
        <ele>159.24</ele>
        <time>2012-06-17T13:42:07Z</time>
      </trkpt>
      <trkpt lat="48.77848" lon="2.05995">
        <ele>159.72</ele>
        <time>2012-06-17T13:42:24Z</time>
      </trkpt>
      <trkpt lat="48.77848" lon="2.05995">
        <ele>159.72</ele>
        <time>2012-06-17T13:42:50Z</time>
      </trkpt>
      <trkpt lat="48.77848" lon="2.05994">
        <ele>159.24</ele>
        <time>2012-06-17T13:43:06Z</time>
      </trkpt>
      <trkpt lat="48.77848" lon="2.05994">
        <ele>159.24</ele>
        <time>2012-06-17T13:43:28Z</time>
      </trkpt>
      <trkpt lat="48.77848" lon="2.05995">
        <ele>159.72</ele>
        <time>2012-06-17T13:43:49Z</time>
      </trkpt>
      <trkpt lat="48.7785" lon="2.06">
        <ele>158.75</ele>
        <time>2012-06-17T13:44:00Z</time>
      </trkpt>
      <trkpt lat="48.77851" lon="2.06009">
        <ele>156.35</ele>
        <time>2012-06-17T13:44:04Z</time>
      </trkpt>
      <trkpt lat="48.77852" lon="2.06013">
        <ele>155.39</ele>
        <time>2012-06-17T13:44:06Z</time>
      </trkpt>
      <trkpt lat="48.77856" lon="2.06017">
        <ele>155.39</ele>
        <time>2012-06-17T13:44:12Z</time>
      </trkpt>
      <trkpt lat="48.77857" lon="2.06021">
        <ele>155.87</ele>
        <time>2012-06-17T13:44:15Z</time>
      </trkpt>
      <trkpt lat="48.77856" lon="2.06031">
        <ele>154.91</ele>
        <time>2012-06-17T13:44:27Z</time>
      </trkpt>
      <trkpt lat="48.77853" lon="2.06061">
        <ele>155.39</ele>
        <time>2012-06-17T13:44:51Z</time>
      </trkpt>
      <trkpt lat="48.77853" lon="2.06084">
        <ele>154.91</ele>
        <time>2012-06-17T13:44:55Z</time>
      </trkpt>
      <trkpt lat="48.77857" lon="2.06107">
        <ele>154.91</ele>
        <time>2012-06-17T13:45:04Z</time>
      </trkpt>
      <trkpt lat="48.77856" lon="2.06115">
        <ele>154.43</ele>
        <time>2012-06-17T13:45:08Z</time>
      </trkpt>
      <trkpt lat="48.77851" lon="2.06131">
        <ele>154.43</ele>
        <time>2012-06-17T13:45:18Z</time>
      </trkpt>
      <trkpt lat="48.77851" lon="2.06139">
        <ele>154.43</ele>
        <time>2012-06-17T13:45:22Z</time>
      </trkpt>
      <trkpt lat="48.7785" lon="2.06161">
        <ele>153.47</ele>
        <time>2012-06-17T13:45:36Z</time>
      </trkpt>
      <trkpt lat="48.77849" lon="2.06167">
        <ele>153.47</ele>
        <time>2012-06-17T13:45:40Z</time>
      </trkpt>
      <trkpt lat="48.77848" lon="2.0617">
        <ele>153.95</ele>
        <time>2012-06-17T13:45:42Z</time>
      </trkpt>
      <trkpt lat="48.77848" lon="2.06173">
        <ele>153.47</ele>
        <time>2012-06-17T13:45:44Z</time>
      </trkpt>
      <trkpt lat="48.77846" lon="2.06175">
        <ele>152.99</ele>
        <time>2012-06-17T13:45:46Z</time>
      </trkpt>
      <trkpt lat="48.7784" lon="2.06174">
        <ele>152.51</ele>
        <time>2012-06-17T13:45:50Z</time>
      </trkpt>
      <trkpt lat="48.77837" lon="2.06174">
        <ele>152.03</ele>
        <time>2012-06-17T13:45:53Z</time>
      </trkpt>
      <trkpt lat="48.77829" lon="2.0617">
        <ele>151.06</ele>
        <time>2012-06-17T13:46:01Z</time>
      </trkpt>
      <trkpt lat="48.77822" lon="2.06172">
        <ele>149.62</ele>
        <time>2012-06-17T13:46:09Z</time>
      </trkpt>
      <trkpt lat="48.77815" lon="2.06174">
        <ele>148.66</ele>
        <time>2012-06-17T13:46:15Z</time>
      </trkpt>
      <trkpt lat="48.77807" lon="2.06177">
        <ele>148.18</ele>
        <time>2012-06-17T13:46:21Z</time>
      </trkpt>
      <trkpt lat="48.77804" lon="2.06177">
        <ele>147.7</ele>
        <time>2012-06-17T13:46:23Z</time>
      </trkpt>
      <trkpt lat="48.77793" lon="2.06182">
        <ele>145.78</ele>
        <time>2012-06-17T13:46:34Z</time>
      </trkpt>
      <trkpt lat="48.77793" lon="2.06205">
        <ele>143.85</ele>
        <time>2012-06-17T13:46:48Z</time>
      </trkpt>
      <trkpt lat="48.77794" lon="2.06209">
        <ele>144.34</ele>
        <time>2012-06-17T13:46:51Z</time>
      </trkpt>
      <trkpt lat="48.77801" lon="2.06225">
        <ele>143.85</ele>
        <time>2012-06-17T13:47:05Z</time>
      </trkpt>
      <trkpt lat="48.77811" lon="2.06229">
        <ele>143.37</ele>
        <time>2012-06-17T13:47:12Z</time>
      </trkpt>
      <trkpt lat="48.77832" lon="2.06237">
        <ele>144.34</ele>
        <time>2012-06-17T13:47:29Z</time>
      </trkpt>
      <trkpt lat="48.77832" lon="2.06238">
        <ele>144.34</ele>
        <time>2012-06-17T13:47:30Z</time>
      </trkpt>
      <trkpt lat="48.77837" lon="2.06249">
        <ele>144.34</ele>
        <time>2012-06-17T13:47:43Z</time>
      </trkpt>
      <trkpt lat="48.77838" lon="2.06261">
        <ele>144.34</ele>
        <time>2012-06-17T13:47:53Z</time>
      </trkpt>
      <trkpt lat="48.7783" lon="2.06275">
        <ele>143.37</ele>
        <time>2012-06-17T13:48:04Z</time>
      </trkpt>
      <trkpt lat="48.77827" lon="2.06281">
        <ele>142.89</ele>
        <time>2012-06-17T13:48:08Z</time>
      </trkpt>
      <trkpt lat="48.77832" lon="2.06313">
        <ele>142.89</ele>
        <time>2012-06-17T13:48:22Z</time>
      </trkpt>
      <trkpt lat="48.77838" lon="2.06332">
        <ele>142.41</ele>
        <time>2012-06-17T13:48:36Z</time>
      </trkpt>
      <trkpt lat="48.77842" lon="2.06336">
        <ele>142.41</ele>
        <time>2012-06-17T13:48:40Z</time>
      </trkpt>
      <trkpt lat="48.77843" lon="2.06339">
        <ele>142.41</ele>
        <time>2012-06-17T13:48:42Z</time>
      </trkpt>
      <trkpt lat="48.77847" lon="2.06355">
        <ele>141.93</ele>
        <time>2012-06-17T13:48:55Z</time>
      </trkpt>
      <trkpt lat="48.77853" lon="2.06365">
        <ele>141.93</ele>
        <time>2012-06-17T13:49:01Z</time>
      </trkpt>
      <trkpt lat="48.77851" lon="2.06369">
        <ele>142.41</ele>
        <time>2012-06-17T13:49:05Z</time>
      </trkpt>
      <trkpt lat="48.77849" lon="2.06376">
        <ele>141.93</ele>
        <time>2012-06-17T13:49:10Z</time>
      </trkpt>
      <trkpt lat="48.77852" lon="2.06394">
        <ele>141.45</ele>
        <time>2012-06-17T13:49:18Z</time>
      </trkpt>
      <trkpt lat="48.7786" lon="2.06421">
        <ele>141.93</ele>
        <time>2012-06-17T13:49:33Z</time>
      </trkpt>
      <trkpt lat="48.7787" lon="2.06443">
        <ele>142.41</ele>
        <time>2012-06-17T13:49:48Z</time>
      </trkpt>
      <trkpt lat="48.77878" lon="2.06459">
        <ele>143.37</ele>
        <time>2012-06-17T13:50:01Z</time>
      </trkpt>
      <trkpt lat="48.77883" lon="2.06474">
        <ele>142.89</ele>
        <time>2012-06-17T13:50:13Z</time>
      </trkpt>
      <trkpt lat="48.77878" lon="2.06482">
        <ele>142.41</ele>
        <time>2012-06-17T13:50:20Z</time>
      </trkpt>
      <trkpt lat="48.77867" lon="2.06496">
        <ele>141.93</ele>
        <time>2012-06-17T13:50:35Z</time>
      </trkpt>
      <trkpt lat="48.77853" lon="2.06505">
        <ele>141.93</ele>
        <time>2012-06-17T13:50:49Z</time>
      </trkpt>
      <trkpt lat="48.77858" lon="2.06501">
        <ele>141.93</ele>
        <time>2012-06-17T13:51:02Z</time>
      </trkpt>
      <trkpt lat="48.77862" lon="2.06495">
        <ele>141.45</ele>
        <time>2012-06-17T13:51:23Z</time>
      </trkpt>
      <trkpt lat="48.77869" lon="2.06491">
        <ele>141.93</ele>
        <time>2012-06-17T13:51:30Z</time>
      </trkpt>
      <trkpt lat="48.77893" lon="2.06476">
        <ele>142.41</ele>
        <time>2012-06-17T13:51:46Z</time>
      </trkpt>
      <trkpt lat="48.77895" lon="2.06476">
        <ele>142.41</ele>
        <time>2012-06-17T13:51:48Z</time>
      </trkpt>
      <trkpt lat="48.77902" lon="2.06485">
        <ele>142.89</ele>
        <time>2012-06-17T13:51:57Z</time>
      </trkpt>
      <trkpt lat="48.77911" lon="2.06503">
        <ele>142.89</ele>
        <time>2012-06-17T13:52:10Z</time>
      </trkpt>
      <trkpt lat="48.7792" lon="2.06522">
        <ele>143.37</ele>
        <time>2012-06-17T13:52:24Z</time>
      </trkpt>
      <trkpt lat="48.77924" lon="2.06529">
        <ele>142.89</ele>
        <time>2012-06-17T13:52:29Z</time>
      </trkpt>
      <trkpt lat="48.77933" lon="2.06547">
        <ele>143.37</ele>
        <time>2012-06-17T13:52:43Z</time>
      </trkpt>
      <trkpt lat="48.77941" lon="2.06562">
        <ele>143.37</ele>
        <time>2012-06-17T13:52:54Z</time>
      </trkpt>
      <trkpt lat="48.77953" lon="2.06579">
        <ele>143.37</ele>
        <time>2012-06-17T13:53:09Z</time>
      </trkpt>
      <trkpt lat="48.77956" lon="2.06582">
        <ele>143.85</ele>
        <time>2012-06-17T13:53:13Z</time>
      </trkpt>
      <trkpt lat="48.77954" lon="2.066">
        <ele>143.37</ele>
        <time>2012-06-17T13:53:27Z</time>
      </trkpt>
      <trkpt lat="48.77948" lon="2.06611">
        <ele>141.93</ele>
        <time>2012-06-17T13:53:37Z</time>
      </trkpt>
      <trkpt lat="48.77936" lon="2.06627">
        <ele>139.53</ele>
        <time>2012-06-17T13:53:51Z</time>
      </trkpt>
      <trkpt lat="48.77933" lon="2.06638">
        <ele>139.05</ele>
        <time>2012-06-17T13:54:05Z</time>
      </trkpt>
      <trkpt lat="48.77934" lon="2.06649">
        <ele>138.57</ele>
        <time>2012-06-17T13:54:17Z</time>
      </trkpt>
      <trkpt lat="48.77938" lon="2.06667">
        <ele>138.09</ele>
        <time>2012-06-17T13:54:29Z</time>
      </trkpt>
      <trkpt lat="48.77943" lon="2.06684">
        <ele>137.61</ele>
        <time>2012-06-17T13:54:41Z</time>
      </trkpt>
      <trkpt lat="48.77944" lon="2.06686">
        <ele>138.09</ele>
        <time>2012-06-17T13:54:43Z</time>
      </trkpt>
      <trkpt lat="48.77958" lon="2.06704">
        <ele>138.09</ele>
        <time>2012-06-17T13:54:57Z</time>
      </trkpt>
      <trkpt lat="48.77962" lon="2.06709">
        <ele>137.13</ele>
        <time>2012-06-17T13:55:01Z</time>
      </trkpt>
      <trkpt lat="48.77973" lon="2.06714">
        <ele>137.61</ele>
        <time>2012-06-17T13:55:11Z</time>
      </trkpt>
      <trkpt lat="48.7798" lon="2.06724">
        <ele>138.09</ele>
        <time>2012-06-17T13:55:26Z</time>
      </trkpt>
      <trkpt lat="48.77991" lon="2.0674">
        <ele>137.61</ele>
        <time>2012-06-17T13:55:41Z</time>
      </trkpt>
      <trkpt lat="48.77994" lon="2.06742">
        <ele>137.61</ele>
        <time>2012-06-17T13:55:53Z</time>
      </trkpt>
      <trkpt lat="48.78001" lon="2.06752">
        <ele>138.09</ele>
        <time>2012-06-17T13:56:09Z</time>
      </trkpt>
      <trkpt lat="48.78012" lon="2.06763">
        <ele>138.09</ele>
        <time>2012-06-17T13:56:30Z</time>
      </trkpt>
      <trkpt lat="48.78014" lon="2.06767">
        <ele>138.09</ele>
        <time>2012-06-17T13:56:45Z</time>
      </trkpt>
      <trkpt lat="48.78018" lon="2.06776">
        <ele>137.61</ele>
        <time>2012-06-17T13:56:57Z</time>
      </trkpt>
      <trkpt lat="48.78025" lon="2.06787">
        <ele>138.09</ele>
        <time>2012-06-17T13:57:11Z</time>
      </trkpt>
      <trkpt lat="48.78038" lon="2.06807">
        <ele>137.61</ele>
        <time>2012-06-17T13:57:25Z</time>
      </trkpt>
      <trkpt lat="48.78045" lon="2.06815">
        <ele>138.09</ele>
        <time>2012-06-17T13:57:32Z</time>
      </trkpt>
      <trkpt lat="48.78049" lon="2.0682">
        <ele>137.61</ele>
        <time>2012-06-17T13:57:37Z</time>
      </trkpt>
      <trkpt lat="48.78065" lon="2.06829">
        <ele>138.57</ele>
        <time>2012-06-17T13:57:54Z</time>
      </trkpt>
      <trkpt lat="48.7807" lon="2.06843">
        <ele>138.09</ele>
        <time>2012-06-17T13:58:06Z</time>
      </trkpt>
      <trkpt lat="48.78079" lon="2.06861">
        <ele>137.61</ele>
        <time>2012-06-17T13:58:19Z</time>
      </trkpt>
      <trkpt lat="48.78087" lon="2.06873">
        <ele>137.61</ele>
        <time>2012-06-17T13:58:30Z</time>
      </trkpt>
      <trkpt lat="48.781" lon="2.06892">
        <ele>137.13</ele>
        <time>2012-06-17T13:58:45Z</time>
      </trkpt>
      <trkpt lat="48.78116" lon="2.06915">
        <ele>138.09</ele>
        <time>2012-06-17T13:59:02Z</time>
      </trkpt>
      <trkpt lat="48.78129" lon="2.06938">
        <ele>137.61</ele>
        <time>2012-06-17T13:59:20Z</time>
      </trkpt>
      <trkpt lat="48.78139" lon="2.06955">
        <ele>137.61</ele>
        <time>2012-06-17T13:59:35Z</time>
      </trkpt>
      <trkpt lat="48.78144" lon="2.06965">
        <ele>137.61</ele>
        <time>2012-06-17T13:59:42Z</time>
      </trkpt>
      <trkpt lat="48.78154" lon="2.0698">
        <ele>137.13</ele>
        <time>2012-06-17T13:59:56Z</time>
      </trkpt>
      <trkpt lat="48.78156" lon="2.06984">
        <ele>138.09</ele>
        <time>2012-06-17T13:59:59Z</time>
      </trkpt>
      <trkpt lat="48.78169" lon="2.07009">
        <ele>136.64</ele>
        <time>2012-06-17T14:00:16Z</time>
      </trkpt>
      <trkpt lat="48.78169" lon="2.07011">
        <ele>137.13</ele>
        <time>2012-06-17T14:00:18Z</time>
      </trkpt>
      <trkpt lat="48.78167" lon="2.07027">
        <ele>137.13</ele>
        <time>2012-06-17T14:00:32Z</time>
      </trkpt>
      <trkpt lat="48.78172" lon="2.07039">
        <ele>137.13</ele>
        <time>2012-06-17T14:00:40Z</time>
      </trkpt>
      <trkpt lat="48.78171" lon="2.07055">
        <ele>137.61</ele>
        <time>2012-06-17T14:00:54Z</time>
      </trkpt>
      <trkpt lat="48.78171" lon="2.0706">
        <ele>137.13</ele>
        <time>2012-06-17T14:00:58Z</time>
      </trkpt>
      <trkpt lat="48.7817" lon="2.07066">
        <ele>138.09</ele>
        <time>2012-06-17T14:01:03Z</time>
      </trkpt>
      <trkpt lat="48.78174" lon="2.07079">
        <ele>137.61</ele>
        <time>2012-06-17T14:01:09Z</time>
      </trkpt>
      <trkpt lat="48.78179" lon="2.07098">
        <ele>137.61</ele>
        <time>2012-06-17T14:01:21Z</time>
      </trkpt>
      <trkpt lat="48.78179" lon="2.071">
        <ele>137.61</ele>
        <time>2012-06-17T14:01:22Z</time>
      </trkpt>
      <trkpt lat="48.78188" lon="2.07122">
        <ele>138.09</ele>
        <time>2012-06-17T14:01:31Z</time>
      </trkpt>
      <trkpt lat="48.78187" lon="2.07136">
        <ele>138.09</ele>
        <time>2012-06-17T14:01:38Z</time>
      </trkpt>
      <trkpt lat="48.78189" lon="2.07146">
        <ele>137.61</ele>
        <time>2012-06-17T14:01:42Z</time>
      </trkpt>
      <trkpt lat="48.78192" lon="2.0716">
        <ele>138.09</ele>
        <time>2012-06-17T14:01:48Z</time>
      </trkpt>
      <trkpt lat="48.78186" lon="2.07177">
        <ele>137.61</ele>
        <time>2012-06-17T14:01:59Z</time>
      </trkpt>
      <trkpt lat="48.78187" lon="2.0718">
        <ele>137.61</ele>
        <time>2012-06-17T14:02:00Z</time>
      </trkpt>
      <trkpt lat="48.78187" lon="2.07184">
        <ele>138.09</ele>
        <time>2012-06-17T14:02:02Z</time>
      </trkpt>
      <trkpt lat="48.78188" lon="2.07191">
        <ele>138.09</ele>
        <time>2012-06-17T14:02:06Z</time>
      </trkpt>
      <trkpt lat="48.78184" lon="2.07212">
        <ele>138.09</ele>
        <time>2012-06-17T14:02:19Z</time>
      </trkpt>
      <trkpt lat="48.78184" lon="2.07214">
        <ele>138.09</ele>
        <time>2012-06-17T14:02:20Z</time>
      </trkpt>
      <trkpt lat="48.78182" lon="2.07235">
        <ele>138.09</ele>
        <time>2012-06-17T14:02:33Z</time>
      </trkpt>
      <trkpt lat="48.78188" lon="2.07254">
        <ele>138.09</ele>
        <time>2012-06-17T14:02:44Z</time>
      </trkpt>
      <trkpt lat="48.78189" lon="2.07276">
        <ele>138.09</ele>
        <time>2012-06-17T14:02:57Z</time>
      </trkpt>
      <trkpt lat="48.78188" lon="2.07286">
        <ele>138.09</ele>
        <time>2012-06-17T14:03:03Z</time>
      </trkpt>
      <trkpt lat="48.78188" lon="2.07291">
        <ele>137.61</ele>
        <time>2012-06-17T14:03:05Z</time>
      </trkpt>
      <trkpt lat="48.7819" lon="2.07316">
        <ele>137.61</ele>
        <time>2012-06-17T14:03:19Z</time>
      </trkpt>
      <trkpt lat="48.78191" lon="2.07337">
        <ele>137.61</ele>
        <time>2012-06-17T14:03:31Z</time>
      </trkpt>
      <trkpt lat="48.78198" lon="2.07364">
        <ele>136.64</ele>
        <time>2012-06-17T14:03:45Z</time>
      </trkpt>
      <trkpt lat="48.78204" lon="2.0738">
        <ele>137.13</ele>
        <time>2012-06-17T14:03:56Z</time>
      </trkpt>
      <trkpt lat="48.78211" lon="2.07394">
        <ele>136.16</ele>
        <time>2012-06-17T14:04:09Z</time>
      </trkpt>
      <trkpt lat="48.78211" lon="2.07394">
        <ele>136.16</ele>
        <time>2012-06-17T14:04:29Z</time>
      </trkpt>
      <trkpt lat="48.78211" lon="2.07394">
        <ele>136.16</ele>
        <time>2012-06-17T14:04:55Z</time>
      </trkpt>
      <trkpt lat="48.78212" lon="2.07397">
        <ele>136.16</ele>
        <time>2012-06-17T14:05:09Z</time>
      </trkpt>
      <trkpt lat="48.78216" lon="2.07418">
        <ele>135.68</ele>
        <time>2012-06-17T14:05:24Z</time>
      </trkpt>
      <trkpt lat="48.78215" lon="2.07437">
        <ele>136.16</ele>
        <time>2012-06-17T14:05:37Z</time>
      </trkpt>
      <trkpt lat="48.78209" lon="2.07457">
        <ele>137.61</ele>
        <time>2012-06-17T14:05:50Z</time>
      </trkpt>
      <trkpt lat="48.78208" lon="2.07478">
        <ele>137.61</ele>
        <time>2012-06-17T14:06:04Z</time>
      </trkpt>
      <trkpt lat="48.7821" lon="2.07497">
        <ele>137.13</ele>
        <time>2012-06-17T14:06:14Z</time>
      </trkpt>
      <trkpt lat="48.78212" lon="2.07502">
        <ele>137.13</ele>
        <time>2012-06-17T14:06:17Z</time>
      </trkpt>
      <trkpt lat="48.78213" lon="2.07505">
        <ele>136.64</ele>
        <time>2012-06-17T14:06:19Z</time>
      </trkpt>
      <trkpt lat="48.7822" lon="2.07529">
        <ele>136.16</ele>
        <time>2012-06-17T14:06:34Z</time>
      </trkpt>
      <trkpt lat="48.7823" lon="2.07543">
        <ele>136.16</ele>
        <time>2012-06-17T14:06:46Z</time>
      </trkpt>
      <trkpt lat="48.78235" lon="2.07549">
        <ele>136.16</ele>
        <time>2012-06-17T14:06:52Z</time>
      </trkpt>
      <trkpt lat="48.78239" lon="2.07553">
        <ele>136.16</ele>
        <time>2012-06-17T14:06:56Z</time>
      </trkpt>
      <trkpt lat="48.78243" lon="2.07557">
        <ele>136.16</ele>
        <time>2012-06-17T14:07:00Z</time>
      </trkpt>
      <trkpt lat="48.78251" lon="2.07565">
        <ele>136.16</ele>
        <time>2012-06-17T14:07:07Z</time>
      </trkpt>
      <trkpt lat="48.78259" lon="2.07573">
        <ele>136.16</ele>
        <time>2012-06-17T14:07:15Z</time>
      </trkpt>
      <trkpt lat="48.78264" lon="2.07578">
        <ele>136.16</ele>
        <time>2012-06-17T14:07:19Z</time>
      </trkpt>
      <trkpt lat="48.78276" lon="2.0759">
        <ele>136.16</ele>
        <time>2012-06-17T14:07:33Z</time>
      </trkpt>
      <trkpt lat="48.78279" lon="2.07595">
        <ele>136.16</ele>
        <time>2012-06-17T14:07:37Z</time>
      </trkpt>
      <trkpt lat="48.7829" lon="2.07608">
        <ele>136.16</ele>
        <time>2012-06-17T14:07:51Z</time>
      </trkpt>
      <trkpt lat="48.78303" lon="2.07617">
        <ele>136.16</ele>
        <time>2012-06-17T14:08:02Z</time>
      </trkpt>
      <trkpt lat="48.78316" lon="2.07631">
        <ele>136.16</ele>
        <time>2012-06-17T14:08:15Z</time>
      </trkpt>
      <trkpt lat="48.78318" lon="2.07634">
        <ele>135.68</ele>
        <time>2012-06-17T14:08:17Z</time>
      </trkpt>
      <trkpt lat="48.78333" lon="2.07649">
        <ele>135.68</ele>
        <time>2012-06-17T14:08:32Z</time>
      </trkpt>
      <trkpt lat="48.78335" lon="2.07655">
        <ele>136.64</ele>
        <time>2012-06-17T14:08:37Z</time>
      </trkpt>
      <trkpt lat="48.78348" lon="2.07671">
        <ele>137.61</ele>
        <time>2012-06-17T14:08:49Z</time>
      </trkpt>
      <trkpt lat="48.78359" lon="2.07684">
        <ele>137.61</ele>
        <time>2012-06-17T14:09:01Z</time>
      </trkpt>
      <trkpt lat="48.78371" lon="2.07696">
        <ele>136.64</ele>
        <time>2012-06-17T14:09:17Z</time>
      </trkpt>
      <trkpt lat="48.78382" lon="2.07708">
        <ele>136.16</ele>
        <time>2012-06-17T14:09:31Z</time>
      </trkpt>
      <trkpt lat="48.78382" lon="2.07714">
        <ele>136.64</ele>
        <time>2012-06-17T14:09:39Z</time>
      </trkpt>
      <trkpt lat="48.78382" lon="2.07716">
        <ele>136.64</ele>
        <time>2012-06-17T14:09:42Z</time>
      </trkpt>
      <trkpt lat="48.78396" lon="2.07743">
        <ele>137.61</ele>
        <time>2012-06-17T14:09:55Z</time>
      </trkpt>
      <trkpt lat="48.78406" lon="2.07761">
        <ele>137.61</ele>
        <time>2012-06-17T14:10:05Z</time>
      </trkpt>
      <trkpt lat="48.78412" lon="2.07779">
        <ele>138.09</ele>
        <time>2012-06-17T14:10:18Z</time>
      </trkpt>
      <trkpt lat="48.78418" lon="2.07792">
        <ele>138.57</ele>
        <time>2012-06-17T14:10:25Z</time>
      </trkpt>
      <trkpt lat="48.78423" lon="2.07802">
        <ele>137.61</ele>
        <time>2012-06-17T14:10:30Z</time>
      </trkpt>
      <trkpt lat="48.78429" lon="2.07821">
        <ele>138.57</ele>
        <time>2012-06-17T14:10:41Z</time>
      </trkpt>
      <trkpt lat="48.7843" lon="2.07829">
        <ele>138.09</ele>
        <time>2012-06-17T14:10:46Z</time>
      </trkpt>
      <trkpt lat="48.78432" lon="2.07836">
        <ele>138.09</ele>
        <time>2012-06-17T14:10:51Z</time>
      </trkpt>
      <trkpt lat="48.78447" lon="2.07859">
        <ele>138.09</ele>
        <time>2012-06-17T14:11:05Z</time>
      </trkpt>
      <trkpt lat="48.7845" lon="2.07865">
        <ele>137.61</ele>
        <time>2012-06-17T14:11:09Z</time>
      </trkpt>
      <trkpt lat="48.78457" lon="2.07882">
        <ele>138.57</ele>
        <time>2012-06-17T14:11:22Z</time>
      </trkpt>
      <trkpt lat="48.78463" lon="2.07897">
        <ele>140.49</ele>
        <time>2012-06-17T14:11:34Z</time>
      </trkpt>
      <trkpt lat="48.78468" lon="2.07912">
        <ele>140.49</ele>
        <time>2012-06-17T14:11:46Z</time>
      </trkpt>
      <trkpt lat="48.78473" lon="2.07926">
        <ele>139.05</ele>
        <time>2012-06-17T14:11:57Z</time>
      </trkpt>
      <trkpt lat="48.78482" lon="2.07944">
        <ele>137.13</ele>
        <time>2012-06-17T14:12:07Z</time>
      </trkpt>
      <trkpt lat="48.78497" lon="2.0797">
        <ele>138.09</ele>
        <time>2012-06-17T14:12:21Z</time>
      </trkpt>
      <trkpt lat="48.78503" lon="2.07988">
        <ele>138.57</ele>
        <time>2012-06-17T14:12:33Z</time>
      </trkpt>
      <trkpt lat="48.78508" lon="2.08">
        <ele>139.05</ele>
        <time>2012-06-17T14:12:44Z</time>
      </trkpt>
      <trkpt lat="48.78514" lon="2.08013">
        <ele>139.53</ele>
        <time>2012-06-17T14:12:52Z</time>
      </trkpt>
      <trkpt lat="48.78522" lon="2.08026">
        <ele>138.57</ele>
        <time>2012-06-17T14:13:01Z</time>
      </trkpt>
      <trkpt lat="48.78525" lon="2.0803">
        <ele>138.09</ele>
        <time>2012-06-17T14:13:05Z</time>
      </trkpt>
      <trkpt lat="48.78536" lon="2.08048">
        <ele>139.05</ele>
        <time>2012-06-17T14:13:20Z</time>
      </trkpt>
      <trkpt lat="48.78544" lon="2.08067">
        <ele>139.53</ele>
        <time>2012-06-17T14:13:35Z</time>
      </trkpt>
      <trkpt lat="48.78556" lon="2.08083">
        <ele>139.53</ele>
        <time>2012-06-17T14:13:47Z</time>
      </trkpt>
      <trkpt lat="48.78566" lon="2.08095">
        <ele>139.53</ele>
        <time>2012-06-17T14:13:56Z</time>
      </trkpt>
      <trkpt lat="48.78569" lon="2.08099">
        <ele>139.53</ele>
        <time>2012-06-17T14:13:58Z</time>
      </trkpt>
      <trkpt lat="48.78572" lon="2.08103">
        <ele>140.01</ele>
        <time>2012-06-17T14:14:01Z</time>
      </trkpt>
      <trkpt lat="48.78581" lon="2.08118">
        <ele>141.45</ele>
        <time>2012-06-17T14:14:11Z</time>
      </trkpt>
      <trkpt lat="48.78588" lon="2.08132">
        <ele>141.45</ele>
        <time>2012-06-17T14:14:25Z</time>
      </trkpt>
      <trkpt lat="48.7859" lon="2.08135">
        <ele>141.45</ele>
        <time>2012-06-17T14:14:28Z</time>
      </trkpt>
      <trkpt lat="48.78592" lon="2.08137">
        <ele>141.45</ele>
        <time>2012-06-17T14:14:30Z</time>
      </trkpt>
      <trkpt lat="48.786" lon="2.08144">
        <ele>140.97</ele>
        <time>2012-06-17T14:14:40Z</time>
      </trkpt>
      <trkpt lat="48.78613" lon="2.08143">
        <ele>138.57</ele>
        <time>2012-06-17T14:14:55Z</time>
      </trkpt>
      <trkpt lat="48.78626" lon="2.08133">
        <ele>137.61</ele>
        <time>2012-06-17T14:15:11Z</time>
      </trkpt>
      <trkpt lat="48.78628" lon="2.08131">
        <ele>137.13</ele>
        <time>2012-06-17T14:15:12Z</time>
      </trkpt>
      <trkpt lat="48.78646" lon="2.08119">
        <ele>134.24</ele>
        <time>2012-06-17T14:15:23Z</time>
      </trkpt>
      <trkpt lat="48.78651" lon="2.08114">
        <ele>137.13</ele>
        <time>2012-06-17T14:15:28Z</time>
      </trkpt>
      <trkpt lat="48.78655" lon="2.08113">
        <ele>137.13</ele>
        <time>2012-06-17T14:15:30Z</time>
      </trkpt>
      <trkpt lat="48.78668" lon="2.0811">
        <ele>137.13</ele>
        <time>2012-06-17T14:15:46Z</time>
      </trkpt>
      <trkpt lat="48.78685" lon="2.08103">
        <ele>136.64</ele>
        <time>2012-06-17T14:16:00Z</time>
      </trkpt>
      <trkpt lat="48.78707" lon="2.08097">
        <ele>136.64</ele>
        <time>2012-06-17T14:16:16Z</time>
      </trkpt>
      <trkpt lat="48.7871" lon="2.08097">
        <ele>137.61</ele>
        <time>2012-06-17T14:16:19Z</time>
      </trkpt>
      <trkpt lat="48.78727" lon="2.08099">
        <ele>137.13</ele>
        <time>2012-06-17T14:16:32Z</time>
      </trkpt>
      <trkpt lat="48.7873" lon="2.08099">
        <ele>137.13</ele>
        <time>2012-06-17T14:16:34Z</time>
      </trkpt>
      <trkpt lat="48.78751" lon="2.08111">
        <ele>137.13</ele>
        <time>2012-06-17T14:16:50Z</time>
      </trkpt>
      <trkpt lat="48.78756" lon="2.08121">
        <ele>137.13</ele>
        <time>2012-06-17T14:17:03Z</time>
      </trkpt>
      <trkpt lat="48.78769" lon="2.0814">
        <ele>137.61</ele>
        <time>2012-06-17T14:17:17Z</time>
      </trkpt>
      <trkpt lat="48.78778" lon="2.08148">
        <ele>137.61</ele>
        <time>2012-06-17T14:17:24Z</time>
      </trkpt>
      <trkpt lat="48.78786" lon="2.08154">
        <ele>137.61</ele>
        <time>2012-06-17T14:17:30Z</time>
      </trkpt>
      <trkpt lat="48.78799" lon="2.08172">
        <ele>136.64</ele>
        <time>2012-06-17T14:17:45Z</time>
      </trkpt>
      <trkpt lat="48.788" lon="2.08173">
        <ele>135.68</ele>
        <time>2012-06-17T14:17:46Z</time>
      </trkpt>
      <trkpt lat="48.78803" lon="2.08181">
        <ele>135.68</ele>
        <time>2012-06-17T14:17:51Z</time>
      </trkpt>
      <trkpt lat="48.78805" lon="2.08195">
        <ele>136.16</ele>
        <time>2012-06-17T14:18:04Z</time>
      </trkpt>
      <trkpt lat="48.78805" lon="2.08195">
        <ele>136.16</ele>
        <time>2012-06-17T14:18:14Z</time>
      </trkpt>
      <trkpt lat="48.78799" lon="2.08199">
        <ele>135.68</ele>
        <time>2012-06-17T14:18:29Z</time>
      </trkpt>
      <trkpt lat="48.78796" lon="2.08202">
        <ele>135.68</ele>
        <time>2012-06-17T14:18:33Z</time>
      </trkpt>
      <trkpt lat="48.78789" lon="2.08215">
        <ele>136.16</ele>
        <time>2012-06-17T14:18:47Z</time>
      </trkpt>
      <trkpt lat="48.78772" lon="2.0821">
        <ele>132.8</ele>
        <time>2012-06-17T14:18:57Z</time>
      </trkpt>
      <trkpt lat="48.78757" lon="2.08214">
        <ele>135.2</ele>
        <time>2012-06-17T14:19:11Z</time>
      </trkpt>
      <trkpt lat="48.78753" lon="2.08217">
        <ele>134.72</ele>
        <time>2012-06-17T14:19:15Z</time>
      </trkpt>
      <trkpt lat="48.78737" lon="2.08213">
        <ele>134.72</ele>
        <time>2012-06-17T14:19:29Z</time>
      </trkpt>
      <trkpt lat="48.78722" lon="2.08213">
        <ele>134.72</ele>
        <time>2012-06-17T14:19:43Z</time>
      </trkpt>
      <trkpt lat="48.78701" lon="2.08213">
        <ele>135.2</ele>
        <time>2012-06-17T14:20:01Z</time>
      </trkpt>
      <trkpt lat="48.78684" lon="2.08218">
        <ele>135.68</ele>
        <time>2012-06-17T14:20:16Z</time>
      </trkpt>
      <trkpt lat="48.78672" lon="2.08227">
        <ele>135.68</ele>
        <time>2012-06-17T14:20:30Z</time>
      </trkpt>
      <trkpt lat="48.78664" lon="2.08237">
        <ele>135.68</ele>
        <time>2012-06-17T14:20:40Z</time>
      </trkpt>
      <trkpt lat="48.78652" lon="2.0825">
        <ele>135.68</ele>
        <time>2012-06-17T14:20:54Z</time>
      </trkpt>
      <trkpt lat="48.78647" lon="2.08256">
        <ele>135.2</ele>
        <time>2012-06-17T14:20:59Z</time>
      </trkpt>
      <trkpt lat="48.78634" lon="2.08268">
        <ele>135.2</ele>
        <time>2012-06-17T14:21:13Z</time>
      </trkpt>
      <trkpt lat="48.78623" lon="2.08275">
        <ele>134.72</ele>
        <time>2012-06-17T14:21:26Z</time>
      </trkpt>
      <trkpt lat="48.78619" lon="2.08277">
        <ele>134.72</ele>
        <time>2012-06-17T14:21:30Z</time>
      </trkpt>
      <trkpt lat="48.78603" lon="2.0828">
        <ele>134.72</ele>
        <time>2012-06-17T14:21:43Z</time>
      </trkpt>
      <trkpt lat="48.78602" lon="2.08281">
        <ele>134.24</ele>
        <time>2012-06-17T14:21:44Z</time>
      </trkpt>
      <trkpt lat="48.78592" lon="2.08283">
        <ele>134.24</ele>
        <time>2012-06-17T14:21:56Z</time>
      </trkpt>
      <trkpt lat="48.78585" lon="2.08287">
        <ele>135.2</ele>
        <time>2012-06-17T14:22:08Z</time>
      </trkpt>
      <trkpt lat="48.78574" lon="2.08296">
        <ele>135.2</ele>
        <time>2012-06-17T14:22:23Z</time>
      </trkpt>
      <trkpt lat="48.78566" lon="2.08303">
        <ele>135.2</ele>
        <time>2012-06-17T14:22:34Z</time>
      </trkpt>
      <trkpt lat="48.7856" lon="2.08312">
        <ele>134.72</ele>
        <time>2012-06-17T14:22:47Z</time>
      </trkpt>
      <trkpt lat="48.78553" lon="2.08317">
        <ele>135.2</ele>
        <time>2012-06-17T14:23:00Z</time>
      </trkpt>
      <trkpt lat="48.78542" lon="2.08319">
        <ele>134.24</ele>
        <time>2012-06-17T14:23:04Z</time>
      </trkpt>
      <trkpt lat="48.78534" lon="2.08319">
        <ele>134.72</ele>
        <time>2012-06-17T14:23:07Z</time>
      </trkpt>
      <trkpt lat="48.7852" lon="2.08321">
        <ele>134.72</ele>
        <time>2012-06-17T14:23:15Z</time>
      </trkpt>
      <trkpt lat="48.78499" lon="2.08328">
        <ele>134.24</ele>
        <time>2012-06-17T14:23:29Z</time>
      </trkpt>
      <trkpt lat="48.78482" lon="2.08335">
        <ele>134.24</ele>
        <time>2012-06-17T14:23:44Z</time>
      </trkpt>
      <trkpt lat="48.78481" lon="2.08335">
        <ele>134.24</ele>
        <time>2012-06-17T14:23:45Z</time>
      </trkpt>
      <trkpt lat="48.78468" lon="2.0834">
        <ele>134.24</ele>
        <time>2012-06-17T14:23:56Z</time>
      </trkpt>
      <trkpt lat="48.78461" lon="2.08345">
        <ele>133.76</ele>
        <time>2012-06-17T14:24:03Z</time>
      </trkpt>
      <trkpt lat="48.78455" lon="2.08349">
        <ele>133.76</ele>
        <time>2012-06-17T14:24:09Z</time>
      </trkpt>
      <trkpt lat="48.78435" lon="2.08357">
        <ele>133.28</ele>
        <time>2012-06-17T14:24:26Z</time>
      </trkpt>
      <trkpt lat="48.78431" lon="2.08361">
        <ele>133.76</ele>
        <time>2012-06-17T14:24:30Z</time>
      </trkpt>
      <trkpt lat="48.78423" lon="2.08374">
        <ele>133.76</ele>
        <time>2012-06-17T14:24:42Z</time>
      </trkpt>
      <trkpt lat="48.78418" lon="2.0838">
        <ele>133.76</ele>
        <time>2012-06-17T14:24:46Z</time>
      </trkpt>
      <trkpt lat="48.78414" lon="2.0839">
        <ele>133.76</ele>
        <time>2012-06-17T14:24:52Z</time>
      </trkpt>
      <trkpt lat="48.78404" lon="2.0841">
        <ele>133.28</ele>
        <time>2012-06-17T14:25:06Z</time>
      </trkpt>
      <trkpt lat="48.78398" lon="2.08427">
        <ele>133.76</ele>
        <time>2012-06-17T14:25:18Z</time>
      </trkpt>
      <trkpt lat="48.7839" lon="2.0844">
        <ele>133.76</ele>
        <time>2012-06-17T14:25:28Z</time>
      </trkpt>
      <trkpt lat="48.78389" lon="2.08442">
        <ele>133.76</ele>
        <time>2012-06-17T14:25:30Z</time>
      </trkpt>
      <trkpt lat="48.78381" lon="2.08459">
        <ele>133.76</ele>
        <time>2012-06-17T14:25:43Z</time>
      </trkpt>
      <trkpt lat="48.78381" lon="2.0846">
        <ele>133.76</ele>
        <time>2012-06-17T14:25:44Z</time>
      </trkpt>
      <trkpt lat="48.78372" lon="2.08485">
        <ele>133.76</ele>
        <time>2012-06-17T14:26:00Z</time>
      </trkpt>
      <trkpt lat="48.78359" lon="2.08503">
        <ele>133.76</ele>
        <time>2012-06-17T14:26:14Z</time>
      </trkpt>
      <trkpt lat="48.78354" lon="2.08499">
        <ele>133.76</ele>
        <time>2012-06-17T14:26:19Z</time>
      </trkpt>
      <trkpt lat="48.78347" lon="2.08493">
        <ele>133.76</ele>
        <time>2012-06-17T14:26:25Z</time>
      </trkpt>
      <trkpt lat="48.78333" lon="2.08479">
        <ele>133.28</ele>
        <time>2012-06-17T14:26:38Z</time>
      </trkpt>
      <trkpt lat="48.78325" lon="2.08473">
        <ele>133.76</ele>
        <time>2012-06-17T14:26:45Z</time>
      </trkpt>
      <trkpt lat="48.78308" lon="2.08461">
        <ele>133.76</ele>
        <time>2012-06-17T14:27:00Z</time>
      </trkpt>
      <trkpt lat="48.78294" lon="2.08456">
        <ele>134.72</ele>
        <time>2012-06-17T14:27:14Z</time>
      </trkpt>
      <trkpt lat="48.7828" lon="2.08454">
        <ele>134.72</ele>
        <time>2012-06-17T14:27:29Z</time>
      </trkpt>
      <trkpt lat="48.78278" lon="2.08456">
        <ele>135.2</ele>
        <time>2012-06-17T14:27:32Z</time>
      </trkpt>
      <trkpt lat="48.78273" lon="2.08459">
        <ele>134.72</ele>
        <time>2012-06-17T14:27:37Z</time>
      </trkpt>
      <trkpt lat="48.78267" lon="2.08456">
        <ele>134.72</ele>
        <time>2012-06-17T14:27:41Z</time>
      </trkpt>
      <trkpt lat="48.78258" lon="2.08448">
        <ele>134.72</ele>
        <time>2012-06-17T14:27:50Z</time>
      </trkpt>
      <trkpt lat="48.78255" lon="2.08445">
        <ele>134.24</ele>
        <time>2012-06-17T14:27:53Z</time>
      </trkpt>
      <trkpt lat="48.78251" lon="2.08442">
        <ele>134.24</ele>
        <time>2012-06-17T14:27:57Z</time>
      </trkpt>
      <trkpt lat="48.78244" lon="2.08436">
        <ele>134.24</ele>
        <time>2012-06-17T14:28:04Z</time>
      </trkpt>
      <trkpt lat="48.78241" lon="2.08433">
        <ele>134.72</ele>
        <time>2012-06-17T14:28:08Z</time>
      </trkpt>
      <trkpt lat="48.78235" lon="2.08427">
        <ele>134.24</ele>
        <time>2012-06-17T14:28:15Z</time>
      </trkpt>
      <trkpt lat="48.7823" lon="2.08427">
        <ele>133.76</ele>
        <time>2012-06-17T14:28:19Z</time>
      </trkpt>
      <trkpt lat="48.78217" lon="2.08443">
        <ele>133.28</ele>
        <time>2012-06-17T14:28:34Z</time>
      </trkpt>
      <trkpt lat="48.78209" lon="2.08452">
        <ele>133.76</ele>
        <time>2012-06-17T14:28:42Z</time>
      </trkpt>
      <trkpt lat="48.78194" lon="2.08473">
        <ele>133.76</ele>
        <time>2012-06-17T14:28:56Z</time>
      </trkpt>
      <trkpt lat="48.78184" lon="2.08488">
        <ele>133.28</ele>
        <time>2012-06-17T14:29:08Z</time>
      </trkpt>
      <trkpt lat="48.78181" lon="2.08492">
        <ele>133.76</ele>
        <time>2012-06-17T14:29:20Z</time>
      </trkpt>
      <trkpt lat="48.7818" lon="2.0849">
        <ele>133.28</ele>
        <time>2012-06-17T14:29:32Z</time>
      </trkpt>
      <trkpt lat="48.7818" lon="2.0849">
        <ele>133.76</ele>
        <time>2012-06-17T14:29:56Z</time>
      </trkpt>
      <trkpt lat="48.78181" lon="2.0849">
        <ele>133.76</ele>
        <time>2012-06-17T14:30:20Z</time>
      </trkpt>
      <trkpt lat="48.78178" lon="2.08499">
        <ele>133.28</ele>
        <time>2012-06-17T14:30:38Z</time>
      </trkpt>
      <trkpt lat="48.78168" lon="2.08518">
        <ele>133.28</ele>
        <time>2012-06-17T14:30:51Z</time>
      </trkpt>
      <trkpt lat="48.78158" lon="2.08538">
        <ele>133.28</ele>
        <time>2012-06-17T14:31:03Z</time>
      </trkpt>
      <trkpt lat="48.78148" lon="2.08556">
        <ele>132.8</ele>
        <time>2012-06-17T14:31:18Z</time>
      </trkpt>
      <trkpt lat="48.78137" lon="2.08574">
        <ele>133.76</ele>
        <time>2012-06-17T14:31:32Z</time>
      </trkpt>
      <trkpt lat="48.78125" lon="2.08593">
        <ele>133.28</ele>
        <time>2012-06-17T14:31:45Z</time>
      </trkpt>
      <trkpt lat="48.78122" lon="2.08598">
        <ele>133.28</ele>
        <time>2012-06-17T14:31:49Z</time>
      </trkpt>
      <trkpt lat="48.78101" lon="2.08615">
        <ele>133.28</ele>
        <time>2012-06-17T14:32:06Z</time>
      </trkpt>
      <trkpt lat="48.78097" lon="2.0862">
        <ele>133.28</ele>
        <time>2012-06-17T14:32:10Z</time>
      </trkpt>
      <trkpt lat="48.78091" lon="2.08629">
        <ele>133.76</ele>
        <time>2012-06-17T14:32:17Z</time>
      </trkpt>
      <trkpt lat="48.78075" lon="2.08651">
        <ele>133.76</ele>
        <time>2012-06-17T14:32:31Z</time>
      </trkpt>
      <trkpt lat="48.78065" lon="2.08674">
        <ele>134.24</ele>
        <time>2012-06-17T14:32:45Z</time>
      </trkpt>
      <trkpt lat="48.78063" lon="2.08678">
        <ele>134.72</ele>
        <time>2012-06-17T14:32:48Z</time>
      </trkpt>
      <trkpt lat="48.78057" lon="2.08702">
        <ele>135.2</ele>
        <time>2012-06-17T14:33:04Z</time>
      </trkpt>
      <trkpt lat="48.78058" lon="2.08725">
        <ele>135.2</ele>
        <time>2012-06-17T14:33:18Z</time>
      </trkpt>
      <trkpt lat="48.78059" lon="2.08728">
        <ele>135.2</ele>
        <time>2012-06-17T14:33:21Z</time>
      </trkpt>
      <trkpt lat="48.78063" lon="2.08738">
        <ele>135.68</ele>
        <time>2012-06-17T14:33:29Z</time>
      </trkpt>
      <trkpt lat="48.7808" lon="2.08755">
        <ele>135.68</ele>
        <time>2012-06-17T14:33:45Z</time>
      </trkpt>
      <trkpt lat="48.78083" lon="2.08757">
        <ele>135.2</ele>
        <time>2012-06-17T14:33:47Z</time>
      </trkpt>
      <trkpt lat="48.78086" lon="2.08763">
        <ele>135.2</ele>
        <time>2012-06-17T14:33:51Z</time>
      </trkpt>
      <trkpt lat="48.78091" lon="2.08787">
        <ele>133.76</ele>
        <time>2012-06-17T14:34:05Z</time>
      </trkpt>
      <trkpt lat="48.78096" lon="2.08819">
        <ele>131.84</ele>
        <time>2012-06-17T14:34:21Z</time>
      </trkpt>
      <trkpt lat="48.78107" lon="2.08854">
        <ele>129.92</ele>
        <time>2012-06-17T14:34:38Z</time>
      </trkpt>
      <trkpt lat="48.78109" lon="2.08858">
        <ele>129.92</ele>
        <time>2012-06-17T14:34:40Z</time>
      </trkpt>
      <trkpt lat="48.78116" lon="2.08881">
        <ele>129.43</ele>
        <time>2012-06-17T14:34:54Z</time>
      </trkpt>
      <trkpt lat="48.78107" lon="2.08907">
        <ele>128.95</ele>
        <time>2012-06-17T14:35:08Z</time>
      </trkpt>
      <trkpt lat="48.7809" lon="2.08928">
        <ele>128.95</ele>
        <time>2012-06-17T14:35:24Z</time>
      </trkpt>
      <trkpt lat="48.78083" lon="2.08942">
        <ele>128.95</ele>
        <time>2012-06-17T14:35:38Z</time>
      </trkpt>
      <trkpt lat="48.7808" lon="2.0895">
        <ele>127.51</ele>
        <time>2012-06-17T14:35:46Z</time>
      </trkpt>
      <trkpt lat="48.78081" lon="2.08958">
        <ele>127.03</ele>
        <time>2012-06-17T14:35:50Z</time>
      </trkpt>
      <trkpt lat="48.78073" lon="2.08978">
        <ele>127.03</ele>
        <time>2012-06-17T14:36:04Z</time>
      </trkpt>
      <trkpt lat="48.7807" lon="2.0898">
        <ele>127.03</ele>
        <time>2012-06-17T14:36:07Z</time>
      </trkpt>
      <trkpt lat="48.78061" lon="2.08988">
        <ele>127.03</ele>
        <time>2012-06-17T14:36:17Z</time>
      </trkpt>
      <trkpt lat="48.78051" lon="2.09">
        <ele>126.55</ele>
        <time>2012-06-17T14:36:29Z</time>
      </trkpt>
      <trkpt lat="48.78045" lon="2.09011">
        <ele>127.03</ele>
        <time>2012-06-17T14:36:35Z</time>
      </trkpt>
      <trkpt lat="48.78034" lon="2.0903">
        <ele>127.03</ele>
        <time>2012-06-17T14:36:49Z</time>
      </trkpt>
      <trkpt lat="48.78027" lon="2.09035">
        <ele>127.03</ele>
        <time>2012-06-17T14:36:57Z</time>
      </trkpt>
      <trkpt lat="48.78022" lon="2.09047">
        <ele>126.55</ele>
        <time>2012-06-17T14:37:04Z</time>
      </trkpt>
      <trkpt lat="48.78009" lon="2.09065">
        <ele>126.55</ele>
        <time>2012-06-17T14:37:17Z</time>
      </trkpt>
      <trkpt lat="48.78004" lon="2.09073">
        <ele>126.55</ele>
        <time>2012-06-17T14:37:24Z</time>
      </trkpt>
      <trkpt lat="48.77995" lon="2.09088">
        <ele>127.03</ele>
        <time>2012-06-17T14:37:38Z</time>
      </trkpt>
      <trkpt lat="48.7799" lon="2.09106">
        <ele>127.03</ele>
        <time>2012-06-17T14:37:50Z</time>
      </trkpt>
      <trkpt lat="48.77984" lon="2.0912">
        <ele>126.55</ele>
        <time>2012-06-17T14:38:03Z</time>
      </trkpt>
      <trkpt lat="48.77979" lon="2.09137">
        <ele>126.07</ele>
        <time>2012-06-17T14:38:15Z</time>
      </trkpt>
      <trkpt lat="48.77975" lon="2.09155">
        <ele>126.55</ele>
        <time>2012-06-17T14:38:21Z</time>
      </trkpt>
      <trkpt lat="48.77973" lon="2.09164">
        <ele>126.55</ele>
        <time>2012-06-17T14:38:25Z</time>
      </trkpt>
      <trkpt lat="48.77963" lon="2.09184">
        <ele>126.55</ele>
        <time>2012-06-17T14:38:35Z</time>
      </trkpt>
      <trkpt lat="48.77959" lon="2.09193">
        <ele>126.55</ele>
        <time>2012-06-17T14:38:40Z</time>
      </trkpt>
      <trkpt lat="48.77952" lon="2.09203">
        <ele>126.55</ele>
        <time>2012-06-17T14:38:48Z</time>
      </trkpt>
      <trkpt lat="48.77941" lon="2.09212">
        <ele>127.03</ele>
        <time>2012-06-17T14:38:59Z</time>
      </trkpt>
      <trkpt lat="48.77938" lon="2.09212">
        <ele>127.03</ele>
        <time>2012-06-17T14:39:02Z</time>
      </trkpt>
      <trkpt lat="48.7793" lon="2.09213">
        <ele>127.03</ele>
        <time>2012-06-17T14:39:09Z</time>
      </trkpt>
      <trkpt lat="48.77919" lon="2.09224">
        <ele>127.03</ele>
        <time>2012-06-17T14:39:20Z</time>
      </trkpt>
      <trkpt lat="48.7791" lon="2.09248">
        <ele>127.03</ele>
        <time>2012-06-17T14:39:32Z</time>
      </trkpt>
      <trkpt lat="48.77915" lon="2.09278">
        <ele>127.03</ele>
        <time>2012-06-17T14:39:48Z</time>
      </trkpt>
      <trkpt lat="48.77915" lon="2.09285">
        <ele>127.03</ele>
        <time>2012-06-17T14:39:51Z</time>
      </trkpt>
      <trkpt lat="48.77914" lon="2.09312">
        <ele>128.47</ele>
        <time>2012-06-17T14:40:07Z</time>
      </trkpt>
      <trkpt lat="48.77915" lon="2.09339">
        <ele>127.51</ele>
        <time>2012-06-17T14:40:23Z</time>
      </trkpt>
      <trkpt lat="48.77922" lon="2.09366">
        <ele>127.51</ele>
        <time>2012-06-17T14:40:37Z</time>
      </trkpt>
      <trkpt lat="48.77925" lon="2.09387">
        <ele>127.51</ele>
        <time>2012-06-17T14:40:51Z</time>
      </trkpt>
      <trkpt lat="48.77932" lon="2.09411">
        <ele>127.03</ele>
        <time>2012-06-17T14:41:06Z</time>
      </trkpt>
      <trkpt lat="48.77935" lon="2.09434">
        <ele>126.55</ele>
        <time>2012-06-17T14:41:21Z</time>
      </trkpt>
      <trkpt lat="48.77935" lon="2.09438">
        <ele>127.03</ele>
        <time>2012-06-17T14:41:24Z</time>
      </trkpt>
      <trkpt lat="48.77941" lon="2.09468">
        <ele>126.07</ele>
        <time>2012-06-17T14:41:41Z</time>
      </trkpt>
      <trkpt lat="48.77944" lon="2.0949">
        <ele>126.07</ele>
        <time>2012-06-17T14:41:54Z</time>
      </trkpt>
      <trkpt lat="48.77945" lon="2.09503">
        <ele>126.07</ele>
        <time>2012-06-17T14:42:03Z</time>
      </trkpt>
      <trkpt lat="48.77953" lon="2.09523">
        <ele>126.55</ele>
        <time>2012-06-17T14:42:20Z</time>
      </trkpt>
      <trkpt lat="48.77953" lon="2.09523">
        <ele>126.07</ele>
        <time>2012-06-17T14:42:34Z</time>
      </trkpt>
      <trkpt lat="48.77953" lon="2.09524">
        <ele>126.55</ele>
        <time>2012-06-17T14:42:54Z</time>
      </trkpt>
      <trkpt lat="48.77953" lon="2.09524">
        <ele>126.07</ele>
        <time>2012-06-17T14:43:23Z</time>
      </trkpt>
      <trkpt lat="48.77954" lon="2.09523">
        <ele>127.03</ele>
        <time>2012-06-17T14:43:47Z</time>
      </trkpt>
      <trkpt lat="48.77955" lon="2.09524">
        <ele>126.55</ele>
        <time>2012-06-17T14:44:13Z</time>
      </trkpt>
      <trkpt lat="48.77953" lon="2.09529">
        <ele>126.55</ele>
        <time>2012-06-17T14:44:31Z</time>
      </trkpt>
      <trkpt lat="48.77954" lon="2.09541">
        <ele>127.99</ele>
        <time>2012-06-17T14:44:45Z</time>
      </trkpt>
      <trkpt lat="48.77961" lon="2.09549">
        <ele>128.47</ele>
        <time>2012-06-17T14:44:56Z</time>
      </trkpt>
      <trkpt lat="48.77964" lon="2.0955">
        <ele>128.47</ele>
        <time>2012-06-17T14:44:59Z</time>
      </trkpt>
      <trkpt lat="48.77976" lon="2.09552">
        <ele>128.47</ele>
        <time>2012-06-17T14:45:11Z</time>
      </trkpt>
      <trkpt lat="48.77979" lon="2.09553">
        <ele>128.95</ele>
        <time>2012-06-17T14:45:14Z</time>
      </trkpt>
      <trkpt lat="48.77992" lon="2.09552">
        <ele>128.47</ele>
        <time>2012-06-17T14:45:28Z</time>
      </trkpt>
      <trkpt lat="48.7801" lon="2.09549">
        <ele>128.95</ele>
        <time>2012-06-17T14:45:43Z</time>
      </trkpt>
      <trkpt lat="48.78016" lon="2.09551">
        <ele>128.95</ele>
        <time>2012-06-17T14:45:51Z</time>
      </trkpt>
      <trkpt lat="48.78025" lon="2.09555">
        <ele>128.95</ele>
        <time>2012-06-17T14:45:58Z</time>
      </trkpt>
      <trkpt lat="48.78034" lon="2.09569">
        <ele>129.43</ele>
        <time>2012-06-17T14:46:08Z</time>
      </trkpt>
      <trkpt lat="48.78038" lon="2.09588">
        <ele>127.03</ele>
        <time>2012-06-17T14:46:21Z</time>
      </trkpt>
      <trkpt lat="48.78044" lon="2.09609">
        <ele>126.07</ele>
        <time>2012-06-17T14:46:36Z</time>
      </trkpt>
      <trkpt lat="48.78046" lon="2.09661">
        <ele>124.15</ele>
        <time>2012-06-17T14:47:04Z</time>
      </trkpt>
      <trkpt lat="48.78049" lon="2.09679">
        <ele>124.63</ele>
        <time>2012-06-17T14:47:17Z</time>
      </trkpt>
      <trkpt lat="48.78057" lon="2.09701">
        <ele>125.59</ele>
        <time>2012-06-17T14:47:33Z</time>
      </trkpt>
      <trkpt lat="48.78062" lon="2.09724">
        <ele>125.59</ele>
        <time>2012-06-17T14:47:48Z</time>
      </trkpt>
      <trkpt lat="48.78063" lon="2.09757">
        <ele>125.59</ele>
        <time>2012-06-17T14:48:07Z</time>
      </trkpt>
      <trkpt lat="48.78064" lon="2.09786">
        <ele>125.59</ele>
        <time>2012-06-17T14:48:23Z</time>
      </trkpt>
      <trkpt lat="48.78066" lon="2.09806">
        <ele>126.07</ele>
        <time>2012-06-17T14:48:33Z</time>
      </trkpt>
      <trkpt lat="48.78064" lon="2.09829">
        <ele>126.55</ele>
        <time>2012-06-17T14:48:47Z</time>
      </trkpt>
      <trkpt lat="48.78055" lon="2.09853">
        <ele>125.59</ele>
        <time>2012-06-17T14:49:04Z</time>
      </trkpt>
      <trkpt lat="48.7805" lon="2.09865">
        <ele>126.07</ele>
        <time>2012-06-17T14:49:18Z</time>
      </trkpt>
      <trkpt lat="48.78043" lon="2.0988">
        <ele>124.15</ele>
        <time>2012-06-17T14:49:33Z</time>
      </trkpt>
      <trkpt lat="48.78043" lon="2.0988">
        <ele>122.71</ele>
        <time>2012-06-17T14:49:48Z</time>
      </trkpt>
      <trkpt lat="48.78035" lon="2.0987">
        <ele>121.26</ele>
        <time>2012-06-17T14:50:03Z</time>
      </trkpt>
      <trkpt lat="48.78002" lon="2.09912">
        <ele>121.26</ele>
        <time>2012-06-17T14:50:18Z</time>
      </trkpt>
      <trkpt lat="48.78" lon="2.09916">
        <ele>121.74</ele>
        <time>2012-06-17T14:50:19Z</time>
      </trkpt>
      <trkpt lat="48.7797" lon="2.09925">
        <ele>120.3</ele>
        <time>2012-06-17T14:50:36Z</time>
      </trkpt>
      <trkpt lat="48.7795" lon="2.09921">
        <ele>120.3</ele>
        <time>2012-06-17T14:50:51Z</time>
      </trkpt>
      <trkpt lat="48.77935" lon="2.09911">
        <ele>120.3</ele>
        <time>2012-06-17T14:51:06Z</time>
      </trkpt>
      <trkpt lat="48.77917" lon="2.09899">
        <ele>119.82</ele>
        <time>2012-06-17T14:51:23Z</time>
      </trkpt>
      <trkpt lat="48.77903" lon="2.0989">
        <ele>119.82</ele>
        <time>2012-06-17T14:51:33Z</time>
      </trkpt>
      <trkpt lat="48.77887" lon="2.09879">
        <ele>118.86</ele>
        <time>2012-06-17T14:51:50Z</time>
      </trkpt>
      <trkpt lat="48.77874" lon="2.09874">
        <ele>119.34</ele>
        <time>2012-06-17T14:52:05Z</time>
      </trkpt>
      <trkpt lat="48.77862" lon="2.09877">
        <ele>118.86</ele>
        <time>2012-06-17T14:52:19Z</time>
      </trkpt>
      <trkpt lat="48.7785" lon="2.09889">
        <ele>118.38</ele>
        <time>2012-06-17T14:52:32Z</time>
      </trkpt>
      <trkpt lat="48.77841" lon="2.09905">
        <ele>117.9</ele>
        <time>2012-06-17T14:52:47Z</time>
      </trkpt>
      <trkpt lat="48.77832" lon="2.09927">
        <ele>118.86</ele>
        <time>2012-06-17T14:53:02Z</time>
      </trkpt>
      <trkpt lat="48.77827" lon="2.09955">
        <ele>117.42</ele>
        <time>2012-06-17T14:53:19Z</time>
      </trkpt>
      <trkpt lat="48.77825" lon="2.09978">
        <ele>117.9</ele>
        <time>2012-06-17T14:53:33Z</time>
      </trkpt>
      <trkpt lat="48.77826" lon="2.09983">
        <ele>117.42</ele>
        <time>2012-06-17T14:53:36Z</time>
      </trkpt>
      <trkpt lat="48.77817" lon="2.10006">
        <ele>116.94</ele>
        <time>2012-06-17T14:53:49Z</time>
      </trkpt>
      <trkpt lat="48.77801" lon="2.10023">
        <ele>115.98</ele>
        <time>2012-06-17T14:54:04Z</time>
      </trkpt>
      <trkpt lat="48.77784" lon="2.10026">
        <ele>116.46</ele>
        <time>2012-06-17T14:54:16Z</time>
      </trkpt>
      <trkpt lat="48.7778" lon="2.10027">
        <ele>115.98</ele>
        <time>2012-06-17T14:54:18Z</time>
      </trkpt>
      <trkpt lat="48.77755" lon="2.10027">
        <ele>116.46</ele>
        <time>2012-06-17T14:54:31Z</time>
      </trkpt>
      <trkpt lat="48.77748" lon="2.10026">
        <ele>115.98</ele>
        <time>2012-06-17T14:54:35Z</time>
      </trkpt>
      <trkpt lat="48.77734" lon="2.10021">
        <ele>115.98</ele>
        <time>2012-06-17T14:54:50Z</time>
      </trkpt>
      <trkpt lat="48.77723" lon="2.10022">
        <ele>116.46</ele>
        <time>2012-06-17T14:54:58Z</time>
      </trkpt>
      <trkpt lat="48.77711" lon="2.1002">
        <ele>115.98</ele>
        <time>2012-06-17T14:55:09Z</time>
      </trkpt>
      <trkpt lat="48.777" lon="2.10021">
        <ele>115.98</ele>
        <time>2012-06-17T14:55:18Z</time>
      </trkpt>
      <trkpt lat="48.77685" lon="2.1002">
        <ele>115.98</ele>
        <time>2012-06-17T14:55:32Z</time>
      </trkpt>
      <trkpt lat="48.77672" lon="2.10022">
        <ele>115.5</ele>
        <time>2012-06-17T14:55:45Z</time>
      </trkpt>
      <trkpt lat="48.7766" lon="2.10021">
        <ele>115.5</ele>
        <time>2012-06-17T14:55:59Z</time>
      </trkpt>
      <trkpt lat="48.77652" lon="2.10033">
        <ele>115.98</ele>
        <time>2012-06-17T14:56:13Z</time>
      </trkpt>
      <trkpt lat="48.77645" lon="2.10047">
        <ele>115.98</ele>
        <time>2012-06-17T14:56:27Z</time>
      </trkpt>
      <trkpt lat="48.77641" lon="2.10068">
        <ele>115.5</ele>
        <time>2012-06-17T14:56:41Z</time>
      </trkpt>
      <trkpt lat="48.77638" lon="2.10077">
        <ele>115.5</ele>
        <time>2012-06-17T14:56:59Z</time>
      </trkpt>
      <trkpt lat="48.77636" lon="2.1008">
        <ele>114.53</ele>
        <time>2012-06-17T14:57:01Z</time>
      </trkpt>
      <trkpt lat="48.77634" lon="2.10085">
        <ele>115.01</ele>
        <time>2012-06-17T14:57:04Z</time>
      </trkpt>
      <trkpt lat="48.77633" lon="2.10102">
        <ele>114.53</ele>
        <time>2012-06-17T14:57:13Z</time>
      </trkpt>
      <trkpt lat="48.7763" lon="2.10129">
        <ele>114.05</ele>
        <time>2012-06-17T14:57:28Z</time>
      </trkpt>
      <trkpt lat="48.77625" lon="2.10154">
        <ele>115.01</ele>
        <time>2012-06-17T14:57:43Z</time>
      </trkpt>
      <trkpt lat="48.77624" lon="2.10176">
        <ele>114.53</ele>
        <time>2012-06-17T14:57:55Z</time>
      </trkpt>
      <trkpt lat="48.77629" lon="2.10199">
        <ele>114.53</ele>
        <time>2012-06-17T14:58:05Z</time>
      </trkpt>
      <trkpt lat="48.77631" lon="2.10206">
        <ele>115.01</ele>
        <time>2012-06-17T14:58:07Z</time>
      </trkpt>
      <trkpt lat="48.77634" lon="2.10214">
        <ele>114.53</ele>
        <time>2012-06-17T14:58:11Z</time>
      </trkpt>
      <trkpt lat="48.77634" lon="2.10223">
        <ele>114.53</ele>
        <time>2012-06-17T14:58:16Z</time>
      </trkpt>
      <trkpt lat="48.77633" lon="2.10244">
        <ele>115.01</ele>
        <time>2012-06-17T14:58:28Z</time>
      </trkpt>
      <trkpt lat="48.77632" lon="2.10252">
        <ele>115.01</ele>
        <time>2012-06-17T14:58:32Z</time>
      </trkpt>
      <trkpt lat="48.77632" lon="2.10258">
        <ele>115.01</ele>
        <time>2012-06-17T14:58:35Z</time>
      </trkpt>
      <trkpt lat="48.77633" lon="2.10265">
        <ele>115.01</ele>
        <time>2012-06-17T14:58:40Z</time>
      </trkpt>
      <trkpt lat="48.77633" lon="2.10277">
        <ele>115.01</ele>
        <time>2012-06-17T14:58:46Z</time>
      </trkpt>
      <trkpt lat="48.77638" lon="2.103">
        <ele>114.53</ele>
        <time>2012-06-17T14:58:58Z</time>
      </trkpt>
      <trkpt lat="48.77639" lon="2.10306">
        <ele>115.01</ele>
        <time>2012-06-17T14:59:01Z</time>
      </trkpt>
      <trkpt lat="48.77638" lon="2.10317">
        <ele>115.01</ele>
        <time>2012-06-17T14:59:08Z</time>
      </trkpt>
      <trkpt lat="48.77638" lon="2.10326">
        <ele>115.01</ele>
        <time>2012-06-17T14:59:13Z</time>
      </trkpt>
      <trkpt lat="48.77629" lon="2.10356">
        <ele>114.05</ele>
        <time>2012-06-17T14:59:29Z</time>
      </trkpt>
      <trkpt lat="48.77624" lon="2.10379">
        <ele>114.53</ele>
        <time>2012-06-17T14:59:42Z</time>
      </trkpt>
      <trkpt lat="48.77621" lon="2.10405">
        <ele>114.53</ele>
        <time>2012-06-17T14:59:57Z</time>
      </trkpt>
      <trkpt lat="48.77625" lon="2.10424">
        <ele>114.53</ele>
        <time>2012-06-17T15:00:06Z</time>
      </trkpt>
      <trkpt lat="48.77621" lon="2.10448">
        <ele>115.5</ele>
        <time>2012-06-17T15:00:18Z</time>
      </trkpt>
      <trkpt lat="48.77617" lon="2.10471">
        <ele>115.98</ele>
        <time>2012-06-17T15:00:32Z</time>
      </trkpt>
      <trkpt lat="48.77617" lon="2.10492">
        <ele>115.5</ele>
        <time>2012-06-17T15:00:44Z</time>
      </trkpt>
      <trkpt lat="48.77616" lon="2.10498">
        <ele>115.5</ele>
        <time>2012-06-17T15:00:47Z</time>
      </trkpt>
      <trkpt lat="48.77607" lon="2.10523">
        <ele>115.98</ele>
        <time>2012-06-17T15:01:00Z</time>
      </trkpt>
      <trkpt lat="48.77606" lon="2.10529">
        <ele>115.98</ele>
        <time>2012-06-17T15:01:04Z</time>
      </trkpt>
      <trkpt lat="48.77605" lon="2.10535">
        <ele>115.5</ele>
        <time>2012-06-17T15:01:08Z</time>
      </trkpt>
      <trkpt lat="48.776" lon="2.10548">
        <ele>115.98</ele>
        <time>2012-06-17T15:01:18Z</time>
      </trkpt>
      <trkpt lat="48.77594" lon="2.10564">
        <ele>115.98</ele>
        <time>2012-06-17T15:01:26Z</time>
      </trkpt>
      <trkpt lat="48.77582" lon="2.10588">
        <ele>115.98</ele>
        <time>2012-06-17T15:01:39Z</time>
      </trkpt>
      <trkpt lat="48.77575" lon="2.106">
        <ele>115.5</ele>
        <time>2012-06-17T15:01:47Z</time>
      </trkpt>
      <trkpt lat="48.77566" lon="2.10619">
        <ele>115.5</ele>
        <time>2012-06-17T15:02:00Z</time>
      </trkpt>
      <trkpt lat="48.77565" lon="2.10622">
        <ele>115.5</ele>
        <time>2012-06-17T15:02:02Z</time>
      </trkpt>
      <trkpt lat="48.77562" lon="2.10625">
        <ele>115.01</ele>
        <time>2012-06-17T15:02:05Z</time>
      </trkpt>
      <trkpt lat="48.77553" lon="2.10645">
        <ele>115.5</ele>
        <time>2012-06-17T15:02:20Z</time>
      </trkpt>
      <trkpt lat="48.77546" lon="2.10657">
        <ele>115.5</ele>
        <time>2012-06-17T15:02:28Z</time>
      </trkpt>
      <trkpt lat="48.77541" lon="2.10677">
        <ele>115.98</ele>
        <time>2012-06-17T15:02:40Z</time>
      </trkpt>
      <trkpt lat="48.77539" lon="2.10686">
        <ele>116.46</ele>
        <time>2012-06-17T15:02:45Z</time>
      </trkpt>
      <trkpt lat="48.77541" lon="2.10702">
        <ele>116.94</ele>
        <time>2012-06-17T15:02:55Z</time>
      </trkpt>
      <trkpt lat="48.77543" lon="2.10707">
        <ele>116.94</ele>
        <time>2012-06-17T15:02:58Z</time>
      </trkpt>
      <trkpt lat="48.77547" lon="2.10714">
        <ele>116.94</ele>
        <time>2012-06-17T15:03:03Z</time>
      </trkpt>
      <trkpt lat="48.77549" lon="2.10721">
        <ele>116.46</ele>
        <time>2012-06-17T15:03:07Z</time>
      </trkpt>
      <trkpt lat="48.77552" lon="2.10726">
        <ele>117.42</ele>
        <time>2012-06-17T15:03:11Z</time>
      </trkpt>
      <trkpt lat="48.77557" lon="2.10742">
        <ele>117.42</ele>
        <time>2012-06-17T15:03:24Z</time>
      </trkpt>
      <trkpt lat="48.77558" lon="2.10744">
        <ele>116.94</ele>
        <time>2012-06-17T15:03:25Z</time>
      </trkpt>
      <trkpt lat="48.77564" lon="2.10762">
        <ele>116.46</ele>
        <time>2012-06-17T15:03:37Z</time>
      </trkpt>
      <trkpt lat="48.77567" lon="2.1078">
        <ele>116.46</ele>
        <time>2012-06-17T15:03:48Z</time>
      </trkpt>
      <trkpt lat="48.77568" lon="2.10793">
        <ele>116.46</ele>
        <time>2012-06-17T15:04:02Z</time>
      </trkpt>
      <trkpt lat="48.77568" lon="2.10793">
        <ele>115.5</ele>
        <time>2012-06-17T15:04:23Z</time>
      </trkpt>
      <trkpt lat="48.77568" lon="2.10794">
        <ele>115.98</ele>
        <time>2012-06-17T15:04:43Z</time>
      </trkpt>
      <trkpt lat="48.77568" lon="2.10796">
        <ele>115.98</ele>
        <time>2012-06-17T15:04:58Z</time>
      </trkpt>
      <trkpt lat="48.77568" lon="2.10796">
        <ele>116.46</ele>
        <time>2012-06-17T15:05:25Z</time>
      </trkpt>
      <trkpt lat="48.77568" lon="2.10796">
        <ele>116.94</ele>
        <time>2012-06-17T15:05:49Z</time>
      </trkpt>
      <trkpt lat="48.77568" lon="2.10796">
        <ele>116.94</ele>
        <time>2012-06-17T15:06:11Z</time>
      </trkpt>
      <trkpt lat="48.77567" lon="2.10797">
        <ele>116.46</ele>
        <time>2012-06-17T15:06:34Z</time>
      </trkpt>
      <trkpt lat="48.77568" lon="2.10797">
        <ele>115.98</ele>
        <time>2012-06-17T15:07:02Z</time>
      </trkpt>
      <trkpt lat="48.77568" lon="2.10797">
        <ele>116.46</ele>
        <time>2012-06-17T15:07:26Z</time>
      </trkpt>
      <trkpt lat="48.77568" lon="2.10798">
        <ele>115.5</ele>
        <time>2012-06-17T15:07:43Z</time>
      </trkpt>
      <trkpt lat="48.77568" lon="2.10798">
        <ele>116.94</ele>
        <time>2012-06-17T15:08:02Z</time>
      </trkpt>
      <trkpt lat="48.77567" lon="2.10798">
        <ele>115.98</ele>
        <time>2012-06-17T15:08:29Z</time>
      </trkpt>
      <trkpt lat="48.77567" lon="2.10798">
        <ele>116.46</ele>
        <time>2012-06-17T15:08:52Z</time>
      </trkpt>
      <trkpt lat="48.77566" lon="2.10798">
        <ele>115.98</ele>
        <time>2012-06-17T15:09:11Z</time>
      </trkpt>
      <trkpt lat="48.77566" lon="2.10798">
        <ele>116.46</ele>
        <time>2012-06-17T15:09:35Z</time>
      </trkpt>
      <trkpt lat="48.77566" lon="2.10798">
        <ele>116.94</ele>
        <time>2012-06-17T15:10:01Z</time>
      </trkpt>
      <trkpt lat="48.77566" lon="2.10798">
        <ele>116.46</ele>
        <time>2012-06-17T15:10:27Z</time>
      </trkpt>
      <trkpt lat="48.77566" lon="2.10798">
        <ele>116.94</ele>
        <time>2012-06-17T15:10:45Z</time>
      </trkpt>
      <trkpt lat="48.77566" lon="2.10798">
        <ele>116.46</ele>
        <time>2012-06-17T15:11:10Z</time>
      </trkpt>
      <trkpt lat="48.77565" lon="2.10799">
        <ele>116.94</ele>
        <time>2012-06-17T15:11:29Z</time>
      </trkpt>
      <trkpt lat="48.77565" lon="2.10799">
        <ele>116.46</ele>
        <time>2012-06-17T15:11:53Z</time>
      </trkpt>
      <trkpt lat="48.77565" lon="2.10799">
        <ele>116.46</ele>
        <time>2012-06-17T15:12:22Z</time>
      </trkpt>
      <trkpt lat="48.77576" lon="2.1081">
        <ele>116.94</ele>
        <time>2012-06-17T15:12:37Z</time>
      </trkpt>
      <trkpt lat="48.77575" lon="2.10819">
        <ele>115.98</ele>
        <time>2012-06-17T15:12:42Z</time>
      </trkpt>
      <trkpt lat="48.77573" lon="2.10835">
        <ele>115.01</ele>
        <time>2012-06-17T15:12:50Z</time>
      </trkpt>
      <trkpt lat="48.77572" lon="2.10844">
        <ele>114.53</ele>
        <time>2012-06-17T15:12:56Z</time>
      </trkpt>
      <trkpt lat="48.77569" lon="2.10858">
        <ele>115.01</ele>
        <time>2012-06-17T15:13:06Z</time>
      </trkpt>
      <trkpt lat="48.77567" lon="2.10881">
        <ele>114.05</ele>
        <time>2012-06-17T15:13:19Z</time>
      </trkpt>
      <trkpt lat="48.77564" lon="2.10888">
        <ele>114.53</ele>
        <time>2012-06-17T15:13:24Z</time>
      </trkpt>
      <trkpt lat="48.77556" lon="2.10907">
        <ele>112.61</ele>
        <time>2012-06-17T15:13:37Z</time>
      </trkpt>
      <trkpt lat="48.77547" lon="2.10933">
        <ele>112.13</ele>
        <time>2012-06-17T15:13:55Z</time>
      </trkpt>
      <trkpt lat="48.77542" lon="2.10953">
        <ele>112.13</ele>
        <time>2012-06-17T15:14:10Z</time>
      </trkpt>
      <trkpt lat="48.77538" lon="2.10964">
        <ele>111.17</ele>
        <time>2012-06-17T15:14:18Z</time>
      </trkpt>
      <trkpt lat="48.77531" lon="2.10985">
        <ele>112.61</ele>
        <time>2012-06-17T15:14:32Z</time>
      </trkpt>
      <trkpt lat="48.77526" lon="2.11006">
        <ele>110.69</ele>
        <time>2012-06-17T15:14:44Z</time>
      </trkpt>
      <trkpt lat="48.77516" lon="2.11027">
        <ele>112.13</ele>
        <time>2012-06-17T15:14:57Z</time>
      </trkpt>
      <trkpt lat="48.77512" lon="2.11036">
        <ele>112.61</ele>
        <time>2012-06-17T15:15:04Z</time>
      </trkpt>
      <trkpt lat="48.77511" lon="2.11058">
        <ele>112.61</ele>
        <time>2012-06-17T15:15:18Z</time>
      </trkpt>
      <trkpt lat="48.7753" lon="2.11069">
        <ele>111.17</ele>
        <time>2012-06-17T15:15:40Z</time>
      </trkpt>
      <trkpt lat="48.77537" lon="2.11069">
        <ele>111.65</ele>
        <time>2012-06-17T15:15:43Z</time>
      </trkpt>
      <trkpt lat="48.77543" lon="2.1107">
        <ele>112.61</ele>
        <time>2012-06-17T15:15:47Z</time>
      </trkpt>
      <trkpt lat="48.77555" lon="2.11082">
        <ele>112.13</ele>
        <time>2012-06-17T15:15:59Z</time>
      </trkpt>
      <trkpt lat="48.77571" lon="2.11101">
        <ele>112.61</ele>
        <time>2012-06-17T15:16:14Z</time>
      </trkpt>
      <trkpt lat="48.7758" lon="2.11119">
        <ele>112.61</ele>
        <time>2012-06-17T15:16:26Z</time>
      </trkpt>
      <trkpt lat="48.77587" lon="2.1114">
        <ele>112.61</ele>
        <time>2012-06-17T15:16:38Z</time>
      </trkpt>
      <trkpt lat="48.77592" lon="2.11165">
        <ele>113.09</ele>
        <time>2012-06-17T15:16:52Z</time>
      </trkpt>
      <trkpt lat="48.77593" lon="2.1117">
        <ele>113.57</ele>
        <time>2012-06-17T15:16:55Z</time>
      </trkpt>
      <trkpt lat="48.77596" lon="2.11181">
        <ele>113.09</ele>
        <time>2012-06-17T15:17:01Z</time>
      </trkpt>
      <trkpt lat="48.77598" lon="2.11204">
        <ele>112.13</ele>
        <time>2012-06-17T15:17:14Z</time>
      </trkpt>
      <trkpt lat="48.77598" lon="2.11212">
        <ele>112.61</ele>
        <time>2012-06-17T15:17:18Z</time>
      </trkpt>
      <trkpt lat="48.77599" lon="2.11235">
        <ele>112.61</ele>
        <time>2012-06-17T15:17:31Z</time>
      </trkpt>
      <trkpt lat="48.77599" lon="2.11239">
        <ele>112.61</ele>
        <time>2012-06-17T15:17:33Z</time>
      </trkpt>
      <trkpt lat="48.776" lon="2.11266">
        <ele>112.13</ele>
        <time>2012-06-17T15:17:49Z</time>
      </trkpt>
      <trkpt lat="48.776" lon="2.11269">
        <ele>112.13</ele>
        <time>2012-06-17T15:17:50Z</time>
      </trkpt>
      <trkpt lat="48.77599" lon="2.11281">
        <ele>111.65</ele>
        <time>2012-06-17T15:18:06Z</time>
      </trkpt>
      <trkpt lat="48.77599" lon="2.11299">
        <ele>111.65</ele>
        <time>2012-06-17T15:18:21Z</time>
      </trkpt>
      <trkpt lat="48.776" lon="2.11301">
        <ele>111.65</ele>
        <time>2012-06-17T15:18:22Z</time>
      </trkpt>
      <trkpt lat="48.776" lon="2.11308">
        <ele>112.13</ele>
        <time>2012-06-17T15:18:25Z</time>
      </trkpt>
      <trkpt lat="48.776" lon="2.11313">
        <ele>112.13</ele>
        <time>2012-06-17T15:18:28Z</time>
      </trkpt>
      <trkpt lat="48.77602" lon="2.11339">
        <ele>111.65</ele>
        <time>2012-06-17T15:18:41Z</time>
      </trkpt>
      <trkpt lat="48.77598" lon="2.11364">
        <ele>112.13</ele>
        <time>2012-06-17T15:18:55Z</time>
      </trkpt>
      <trkpt lat="48.77597" lon="2.11376">
        <ele>111.65</ele>
        <time>2012-06-17T15:19:03Z</time>
      </trkpt>
      <trkpt lat="48.77599" lon="2.11386">
        <ele>112.13</ele>
        <time>2012-06-17T15:19:07Z</time>
      </trkpt>
      <trkpt lat="48.77599" lon="2.11415">
        <ele>112.13</ele>
        <time>2012-06-17T15:19:20Z</time>
      </trkpt>
      <trkpt lat="48.77598" lon="2.11441">
        <ele>111.65</ele>
        <time>2012-06-17T15:19:34Z</time>
      </trkpt>
      <trkpt lat="48.77599" lon="2.11449">
        <ele>111.65</ele>
        <time>2012-06-17T15:19:39Z</time>
      </trkpt>
      <trkpt lat="48.776" lon="2.11461">
        <ele>112.13</ele>
        <time>2012-06-17T15:19:46Z</time>
      </trkpt>
      <trkpt lat="48.77601" lon="2.11466">
        <ele>112.13</ele>
        <time>2012-06-17T15:19:50Z</time>
      </trkpt>
      <trkpt lat="48.77603" lon="2.11486">
        <ele>111.65</ele>
        <time>2012-06-17T15:20:01Z</time>
      </trkpt>
      <trkpt lat="48.77605" lon="2.11503">
        <ele>111.65</ele>
        <time>2012-06-17T15:20:10Z</time>
      </trkpt>
      <trkpt lat="48.77604" lon="2.1151">
        <ele>111.65</ele>
        <time>2012-06-17T15:20:15Z</time>
      </trkpt>
      <trkpt lat="48.77605" lon="2.11516">
        <ele>111.65</ele>
        <time>2012-06-17T15:20:19Z</time>
      </trkpt>
      <trkpt lat="48.77604" lon="2.1153">
        <ele>111.65</ele>
        <time>2012-06-17T15:20:27Z</time>
      </trkpt>
      <trkpt lat="48.77602" lon="2.11542">
        <ele>111.65</ele>
        <time>2012-06-17T15:20:33Z</time>
      </trkpt>
      <trkpt lat="48.77601" lon="2.11561">
        <ele>111.17</ele>
        <time>2012-06-17T15:20:41Z</time>
      </trkpt>
      <trkpt lat="48.77601" lon="2.11572">
        <ele>111.65</ele>
        <time>2012-06-17T15:20:47Z</time>
      </trkpt>
      <trkpt lat="48.77602" lon="2.11584">
        <ele>111.17</ele>
        <time>2012-06-17T15:20:53Z</time>
      </trkpt>
      <trkpt lat="48.77604" lon="2.11608">
        <ele>111.65</ele>
        <time>2012-06-17T15:21:07Z</time>
      </trkpt>
      <trkpt lat="48.77605" lon="2.11615">
        <ele>111.65</ele>
        <time>2012-06-17T15:21:12Z</time>
      </trkpt>
      <trkpt lat="48.77606" lon="2.1162">
        <ele>111.65</ele>
        <time>2012-06-17T15:21:15Z</time>
      </trkpt>
      <trkpt lat="48.7761" lon="2.11642">
        <ele>111.17</ele>
        <time>2012-06-17T15:21:28Z</time>
      </trkpt>
      <trkpt lat="48.77617" lon="2.11666">
        <ele>111.65</ele>
        <time>2012-06-17T15:21:42Z</time>
      </trkpt>
      <trkpt lat="48.77618" lon="2.11674">
        <ele>112.13</ele>
        <time>2012-06-17T15:21:47Z</time>
      </trkpt>
      <trkpt lat="48.77623" lon="2.117">
        <ele>112.13</ele>
        <time>2012-06-17T15:22:02Z</time>
      </trkpt>
      <trkpt lat="48.77622" lon="2.11723">
        <ele>112.61</ele>
        <time>2012-06-17T15:22:16Z</time>
      </trkpt>
      <trkpt lat="48.77627" lon="2.11748">
        <ele>112.13</ele>
        <time>2012-06-17T15:22:29Z</time>
      </trkpt>
      <trkpt lat="48.7763" lon="2.11754">
        <ele>112.13</ele>
        <time>2012-06-17T15:22:34Z</time>
      </trkpt>
      <trkpt lat="48.77639" lon="2.11765">
        <ele>112.13</ele>
        <time>2012-06-17T15:22:48Z</time>
      </trkpt>
      <trkpt lat="48.77642" lon="2.11766">
        <ele>111.65</ele>
        <time>2012-06-17T15:22:51Z</time>
      </trkpt>
      <trkpt lat="48.77662" lon="2.11771">
        <ele>112.13</ele>
        <time>2012-06-17T15:23:06Z</time>
      </trkpt>
      <trkpt lat="48.77674" lon="2.11773">
        <ele>111.65</ele>
        <time>2012-06-17T15:23:16Z</time>
      </trkpt>
      <trkpt lat="48.77678" lon="2.11774">
        <ele>112.13</ele>
        <time>2012-06-17T15:23:28Z</time>
      </trkpt>
      <trkpt lat="48.7768" lon="2.11772">
        <ele>111.65</ele>
        <time>2012-06-17T15:23:40Z</time>
      </trkpt>
      <trkpt lat="48.77682" lon="2.11771">
        <ele>111.65</ele>
        <time>2012-06-17T15:23:58Z</time>
      </trkpt>
      <trkpt lat="48.77682" lon="2.11771">
        <ele>112.13</ele>
        <time>2012-06-17T15:24:13Z</time>
      </trkpt>
      <trkpt lat="48.77681" lon="2.11772">
        <ele>111.65</ele>
        <time>2012-06-17T15:24:38Z</time>
      </trkpt>
      <trkpt lat="48.7768" lon="2.11774">
        <ele>111.65</ele>
        <time>2012-06-17T15:24:52Z</time>
      </trkpt>
      <trkpt lat="48.77681" lon="2.11779">
        <ele>110.69</ele>
        <time>2012-06-17T15:24:57Z</time>
      </trkpt>
      <trkpt lat="48.77682" lon="2.11785">
        <ele>108.29</ele>
        <time>2012-06-17T15:25:03Z</time>
      </trkpt>
      <trkpt lat="48.77682" lon="2.11789">
        <ele>107.81</ele>
        <time>2012-06-17T15:25:06Z</time>
      </trkpt>
      <trkpt lat="48.77685" lon="2.11796">
        <ele>107.81</ele>
        <time>2012-06-17T15:25:11Z</time>
      </trkpt>
      <trkpt lat="48.77687" lon="2.11808">
        <ele>107.81</ele>
        <time>2012-06-17T15:25:19Z</time>
      </trkpt>
      <trkpt lat="48.77689" lon="2.11831">
        <ele>108.29</ele>
        <time>2012-06-17T15:25:33Z</time>
      </trkpt>
      <trkpt lat="48.77693" lon="2.11854">
        <ele>107.81</ele>
        <time>2012-06-17T15:25:46Z</time>
      </trkpt>
      <trkpt lat="48.77693" lon="2.11875">
        <ele>107.32</ele>
        <time>2012-06-17T15:26:01Z</time>
      </trkpt>
      <trkpt lat="48.77687" lon="2.11902">
        <ele>107.81</ele>
        <time>2012-06-17T15:26:17Z</time>
      </trkpt>
      <trkpt lat="48.77684" lon="2.11921">
        <ele>107.81</ele>
        <time>2012-06-17T15:26:31Z</time>
      </trkpt>
      <trkpt lat="48.77686" lon="2.11935">
        <ele>107.32</ele>
        <time>2012-06-17T15:26:38Z</time>
      </trkpt>
      <trkpt lat="48.77687" lon="2.11945">
        <ele>107.32</ele>
        <time>2012-06-17T15:26:44Z</time>
      </trkpt>
      <trkpt lat="48.77679" lon="2.11968">
        <ele>107.81</ele>
        <time>2012-06-17T15:26:59Z</time>
      </trkpt>
      <trkpt lat="48.77677" lon="2.12">
        <ele>107.81</ele>
        <time>2012-06-17T15:27:16Z</time>
      </trkpt>
      <trkpt lat="48.77672" lon="2.12023">
        <ele>106.84</ele>
        <time>2012-06-17T15:27:32Z</time>
      </trkpt>
      <trkpt lat="48.7767" lon="2.12032">
        <ele>106.84</ele>
        <time>2012-06-17T15:27:37Z</time>
      </trkpt>
      <trkpt lat="48.77671" lon="2.12046">
        <ele>107.32</ele>
        <time>2012-06-17T15:27:48Z</time>
      </trkpt>
      <trkpt lat="48.77668" lon="2.12061">
        <ele>106.84</ele>
        <time>2012-06-17T15:27:59Z</time>
      </trkpt>
      <trkpt lat="48.77658" lon="2.12082">
        <ele>106.84</ele>
        <time>2012-06-17T15:28:14Z</time>
      </trkpt>
      <trkpt lat="48.77647" lon="2.12111">
        <ele>106.84</ele>
        <time>2012-06-17T15:28:30Z</time>
      </trkpt>
      <trkpt lat="48.77642" lon="2.12131">
        <ele>107.32</ele>
        <time>2012-06-17T15:28:44Z</time>
      </trkpt>
      <trkpt lat="48.7764" lon="2.12143">
        <ele>107.81</ele>
        <time>2012-06-17T15:28:57Z</time>
      </trkpt>
      <trkpt lat="48.77639" lon="2.1215">
        <ele>107.32</ele>
        <time>2012-06-17T15:29:21Z</time>
      </trkpt>
      <trkpt lat="48.77632" lon="2.12174">
        <ele>107.81</ele>
        <time>2012-06-17T15:29:38Z</time>
      </trkpt>
      <trkpt lat="48.7763" lon="2.12181">
        <ele>107.32</ele>
        <time>2012-06-17T15:29:43Z</time>
      </trkpt>
      <trkpt lat="48.77622" lon="2.122">
        <ele>107.32</ele>
        <time>2012-06-17T15:29:56Z</time>
      </trkpt>
      <trkpt lat="48.77618" lon="2.12216">
        <ele>107.32</ele>
        <time>2012-06-17T15:30:06Z</time>
      </trkpt>
      <trkpt lat="48.77617" lon="2.12226">
        <ele>106.84</ele>
        <time>2012-06-17T15:30:13Z</time>
      </trkpt>
      <trkpt lat="48.77617" lon="2.12238">
        <ele>106.84</ele>
        <time>2012-06-17T15:30:21Z</time>
      </trkpt>
      <trkpt lat="48.77616" lon="2.1226">
        <ele>106.84</ele>
        <time>2012-06-17T15:30:34Z</time>
      </trkpt>
      <trkpt lat="48.77608" lon="2.12276">
        <ele>106.84</ele>
        <time>2012-06-17T15:30:45Z</time>
      </trkpt>
      <trkpt lat="48.776" lon="2.12283">
        <ele>105.88</ele>
        <time>2012-06-17T15:30:55Z</time>
      </trkpt>
      <trkpt lat="48.77588" lon="2.12291">
        <ele>106.84</ele>
        <time>2012-06-17T15:31:09Z</time>
      </trkpt>
      <trkpt lat="48.77587" lon="2.12299">
        <ele>106.84</ele>
        <time>2012-06-17T15:31:15Z</time>
      </trkpt>
      <trkpt lat="48.77585" lon="2.12308">
        <ele>107.32</ele>
        <time>2012-06-17T15:31:22Z</time>
      </trkpt>
      <trkpt lat="48.77567" lon="2.12315">
        <ele>107.32</ele>
        <time>2012-06-17T15:31:36Z</time>
      </trkpt>
      <trkpt lat="48.77558" lon="2.12321">
        <ele>107.81</ele>
        <time>2012-06-17T15:31:50Z</time>
      </trkpt>
      <trkpt lat="48.77555" lon="2.12325">
        <ele>107.32</ele>
        <time>2012-06-17T15:31:53Z</time>
      </trkpt>
      <trkpt lat="48.77553" lon="2.1235">
        <ele>106.84</ele>
        <time>2012-06-17T15:32:10Z</time>
      </trkpt>
      <trkpt lat="48.77553" lon="2.12363">
        <ele>107.81</ele>
        <time>2012-06-17T15:32:21Z</time>
      </trkpt>
      <trkpt lat="48.77553" lon="2.1238">
        <ele>106.84</ele>
        <time>2012-06-17T15:32:35Z</time>
      </trkpt>
      <trkpt lat="48.77553" lon="2.12382">
        <ele>106.84</ele>
        <time>2012-06-17T15:32:36Z</time>
      </trkpt>
      <trkpt lat="48.77543" lon="2.12405">
        <ele>106.36</ele>
        <time>2012-06-17T15:32:51Z</time>
      </trkpt>
      <trkpt lat="48.77536" lon="2.1242">
        <ele>106.36</ele>
        <time>2012-06-17T15:33:04Z</time>
      </trkpt>
      <trkpt lat="48.77531" lon="2.12431">
        <ele>106.84</ele>
        <time>2012-06-17T15:33:16Z</time>
      </trkpt>
      <trkpt lat="48.7753" lon="2.12432">
        <ele>106.84</ele>
        <time>2012-06-17T15:33:17Z</time>
      </trkpt>
      <trkpt lat="48.77528" lon="2.12436">
        <ele>106.84</ele>
        <time>2012-06-17T15:33:20Z</time>
      </trkpt>
      <trkpt lat="48.77524" lon="2.1244">
        <ele>106.84</ele>
        <time>2012-06-17T15:33:24Z</time>
      </trkpt>
      <trkpt lat="48.77528" lon="2.12451">
        <ele>107.32</ele>
        <time>2012-06-17T15:33:37Z</time>
      </trkpt>
      <trkpt lat="48.77528" lon="2.12454">
        <ele>107.32</ele>
        <time>2012-06-17T15:33:40Z</time>
      </trkpt>
      <trkpt lat="48.77528" lon="2.12457">
        <ele>106.84</ele>
        <time>2012-06-17T15:33:42Z</time>
      </trkpt>
      <trkpt lat="48.77522" lon="2.1247">
        <ele>106.84</ele>
        <time>2012-06-17T15:33:53Z</time>
      </trkpt>
      <trkpt lat="48.77516" lon="2.1248">
        <ele>106.84</ele>
        <time>2012-06-17T15:34:01Z</time>
      </trkpt>
      <trkpt lat="48.77506" lon="2.12498">
        <ele>106.84</ele>
        <time>2012-06-17T15:34:13Z</time>
      </trkpt>
      <trkpt lat="48.77502" lon="2.12506">
        <ele>107.32</ele>
        <time>2012-06-17T15:34:18Z</time>
      </trkpt>
      <trkpt lat="48.77499" lon="2.12512">
        <ele>107.32</ele>
        <time>2012-06-17T15:34:24Z</time>
      </trkpt>
      <trkpt lat="48.77498" lon="2.12515">
        <ele>107.81</ele>
        <time>2012-06-17T15:34:26Z</time>
      </trkpt>
      <trkpt lat="48.77496" lon="2.12524">
        <ele>107.32</ele>
        <time>2012-06-17T15:34:39Z</time>
      </trkpt>
      <trkpt lat="48.77497" lon="2.12538">
        <ele>107.81</ele>
        <time>2012-06-17T15:34:53Z</time>
      </trkpt>
      <trkpt lat="48.77495" lon="2.12551">
        <ele>106.84</ele>
        <time>2012-06-17T15:35:06Z</time>
      </trkpt>
      <trkpt lat="48.77496" lon="2.12563">
        <ele>106.84</ele>
        <time>2012-06-17T15:35:17Z</time>
      </trkpt>
      <trkpt lat="48.77494" lon="2.12581">
        <ele>107.32</ele>
        <time>2012-06-17T15:35:25Z</time>
      </trkpt>
      <trkpt lat="48.77494" lon="2.12607">
        <ele>107.32</ele>
        <time>2012-06-17T15:35:38Z</time>
      </trkpt>
      <trkpt lat="48.77494" lon="2.12618">
        <ele>107.32</ele>
        <time>2012-06-17T15:35:44Z</time>
      </trkpt>
      <trkpt lat="48.77491" lon="2.12637">
        <ele>108.29</ele>
        <time>2012-06-17T15:35:55Z</time>
      </trkpt>
      <trkpt lat="48.77491" lon="2.12646">
        <ele>108.29</ele>
        <time>2012-06-17T15:36:01Z</time>
      </trkpt>
      <trkpt lat="48.77494" lon="2.12659">
        <ele>107.81</ele>
        <time>2012-06-17T15:36:16Z</time>
      </trkpt>
      <trkpt lat="48.77495" lon="2.12659">
        <ele>107.32</ele>
        <time>2012-06-17T15:36:39Z</time>
      </trkpt>
      <trkpt lat="48.77495" lon="2.12659">
        <ele>107.32</ele>
        <time>2012-06-17T15:36:59Z</time>
      </trkpt>
      <trkpt lat="48.77494" lon="2.12658">
        <ele>107.81</ele>
        <time>2012-06-17T15:37:13Z</time>
      </trkpt>
      <trkpt lat="48.77496" lon="2.12658">
        <ele>107.81</ele>
        <time>2012-06-17T15:37:37Z</time>
      </trkpt>
      <trkpt lat="48.77497" lon="2.12659">
        <ele>107.32</ele>
        <time>2012-06-17T15:37:39Z</time>
      </trkpt>
      <trkpt lat="48.77503" lon="2.12667">
        <ele>106.36</ele>
        <time>2012-06-17T15:37:46Z</time>
      </trkpt>
      <trkpt lat="48.77506" lon="2.1269">
        <ele>105.4</ele>
        <time>2012-06-17T15:38:00Z</time>
      </trkpt>
      <trkpt lat="48.77506" lon="2.12692">
        <ele>105.88</ele>
        <time>2012-06-17T15:38:01Z</time>
      </trkpt>
      <trkpt lat="48.77498" lon="2.127">
        <ele>106.36</ele>
        <time>2012-06-17T15:38:13Z</time>
      </trkpt>
      <trkpt lat="48.77492" lon="2.12704">
        <ele>106.36</ele>
        <time>2012-06-17T15:38:17Z</time>
      </trkpt>
      <trkpt lat="48.77485" lon="2.12713">
        <ele>106.84</ele>
        <time>2012-06-17T15:38:25Z</time>
      </trkpt>
      <trkpt lat="48.77481" lon="2.12736">
        <ele>107.32</ele>
        <time>2012-06-17T15:38:38Z</time>
      </trkpt>
      <trkpt lat="48.77481" lon="2.12744">
        <ele>107.81</ele>
        <time>2012-06-17T15:38:44Z</time>
      </trkpt>
      <trkpt lat="48.77481" lon="2.12747">
        <ele>107.32</ele>
        <time>2012-06-17T15:38:46Z</time>
      </trkpt>
      <trkpt lat="48.7748" lon="2.12765">
        <ele>107.32</ele>
        <time>2012-06-17T15:38:58Z</time>
      </trkpt>
      <trkpt lat="48.77477" lon="2.12779">
        <ele>107.32</ele>
        <time>2012-06-17T15:39:06Z</time>
      </trkpt>
      <trkpt lat="48.77478" lon="2.12788">
        <ele>107.32</ele>
        <time>2012-06-17T15:39:11Z</time>
      </trkpt>
      <trkpt lat="48.77479" lon="2.12793">
        <ele>106.84</ele>
        <time>2012-06-17T15:39:14Z</time>
      </trkpt>
      <trkpt lat="48.77479" lon="2.128">
        <ele>107.32</ele>
        <time>2012-06-17T15:39:18Z</time>
      </trkpt>
      <trkpt lat="48.77481" lon="2.12814">
        <ele>107.32</ele>
        <time>2012-06-17T15:39:26Z</time>
      </trkpt>
      <trkpt lat="48.7748" lon="2.12828">
        <ele>106.84</ele>
        <time>2012-06-17T15:39:35Z</time>
      </trkpt>
      <trkpt lat="48.77478" lon="2.12833">
        <ele>106.84</ele>
        <time>2012-06-17T15:39:38Z</time>
      </trkpt>
      <trkpt lat="48.77476" lon="2.12848">
        <ele>106.36</ele>
        <time>2012-06-17T15:39:48Z</time>
      </trkpt>
      <trkpt lat="48.77484" lon="2.12855">
        <ele>105.4</ele>
        <time>2012-06-17T15:40:01Z</time>
      </trkpt>
      <trkpt lat="48.77489" lon="2.12857">
        <ele>104.92</ele>
        <time>2012-06-17T15:40:07Z</time>
      </trkpt>
      <trkpt lat="48.775" lon="2.12867">
        <ele>103.48</ele>
        <time>2012-06-17T15:40:18Z</time>
      </trkpt>
      <trkpt lat="48.77503" lon="2.12873">
        <ele>103.96</ele>
        <time>2012-06-17T15:40:23Z</time>
      </trkpt>
      <trkpt lat="48.77516" lon="2.12891">
        <ele>103</ele>
        <time>2012-06-17T15:40:37Z</time>
      </trkpt>
      <trkpt lat="48.77518" lon="2.12899">
        <ele>103</ele>
        <time>2012-06-17T15:40:50Z</time>
      </trkpt>
      <trkpt lat="48.77516" lon="2.12908">
        <ele>102.04</ele>
        <time>2012-06-17T15:40:57Z</time>
      </trkpt>
      <trkpt lat="48.77514" lon="2.12914">
        <ele>102.04</ele>
        <time>2012-06-17T15:41:00Z</time>
      </trkpt>
      <trkpt lat="48.77504" lon="2.12939">
        <ele>102.04</ele>
        <time>2012-06-17T15:41:13Z</time>
      </trkpt>
      <trkpt lat="48.77503" lon="2.12951">
        <ele>102.52</ele>
        <time>2012-06-17T15:41:20Z</time>
      </trkpt>
      <trkpt lat="48.77501" lon="2.12957">
        <ele>102.52</ele>
        <time>2012-06-17T15:41:23Z</time>
      </trkpt>
      <trkpt lat="48.775" lon="2.12961">
        <ele>102.04</ele>
        <time>2012-06-17T15:41:26Z</time>
      </trkpt>
      <trkpt lat="48.775" lon="2.12969">
        <ele>102.04</ele>
        <time>2012-06-17T15:41:30Z</time>
      </trkpt>
      <trkpt lat="48.77495" lon="2.12984">
        <ele>102.52</ele>
        <time>2012-06-17T15:41:39Z</time>
      </trkpt>
      <trkpt lat="48.77488" lon="2.13003">
        <ele>102.04</ele>
        <time>2012-06-17T15:41:51Z</time>
      </trkpt>
      <trkpt lat="48.77483" lon="2.13018">
        <ele>102.04</ele>
        <time>2012-06-17T15:42:01Z</time>
      </trkpt>
      <trkpt lat="48.77482" lon="2.13023">
        <ele>102.04</ele>
        <time>2012-06-17T15:42:03Z</time>
      </trkpt>
      <trkpt lat="48.77477" lon="2.13037">
        <ele>102.04</ele>
        <time>2012-06-17T15:42:10Z</time>
      </trkpt>
      <trkpt lat="48.77476" lon="2.13061">
        <ele>102.04</ele>
        <time>2012-06-17T15:42:23Z</time>
      </trkpt>
      <trkpt lat="48.77473" lon="2.13071">
        <ele>102.52</ele>
        <time>2012-06-17T15:42:28Z</time>
      </trkpt>
      <trkpt lat="48.7746" lon="2.13092">
        <ele>102.04</ele>
        <time>2012-06-17T15:42:42Z</time>
      </trkpt>
      <trkpt lat="48.77447" lon="2.13099">
        <ele>102.04</ele>
        <time>2012-06-17T15:42:54Z</time>
      </trkpt>
      <trkpt lat="48.77441" lon="2.131">
        <ele>102.04</ele>
        <time>2012-06-17T15:42:59Z</time>
      </trkpt>
      <trkpt lat="48.77435" lon="2.13098">
        <ele>102.52</ele>
        <time>2012-06-17T15:43:04Z</time>
      </trkpt>
      <trkpt lat="48.77417" lon="2.13105">
        <ele>102.04</ele>
        <time>2012-06-17T15:43:19Z</time>
      </trkpt>
      <trkpt lat="48.77404" lon="2.13104">
        <ele>102.04</ele>
        <time>2012-06-17T15:43:32Z</time>
      </trkpt>
      <trkpt lat="48.77397" lon="2.13099">
        <ele>102.04</ele>
        <time>2012-06-17T15:43:45Z</time>
      </trkpt>
      <trkpt lat="48.77392" lon="2.13105">
        <ele>102.04</ele>
        <time>2012-06-17T15:43:52Z</time>
      </trkpt>
      <trkpt lat="48.77376" lon="2.1312">
        <ele>101.56</ele>
        <time>2012-06-17T15:44:03Z</time>
      </trkpt>
      <trkpt lat="48.77367" lon="2.13128">
        <ele>102.04</ele>
        <time>2012-06-17T15:44:10Z</time>
      </trkpt>
      <trkpt lat="48.77363" lon="2.13133">
        <ele>101.56</ele>
        <time>2012-06-17T15:44:13Z</time>
      </trkpt>
      <trkpt lat="48.77352" lon="2.13151">
        <ele>102.04</ele>
        <time>2012-06-17T15:44:26Z</time>
      </trkpt>
      <trkpt lat="48.7735" lon="2.13154">
        <ele>102.04</ele>
        <time>2012-06-17T15:44:28Z</time>
      </trkpt>
      <trkpt lat="48.77348" lon="2.13157">
        <ele>102.52</ele>
        <time>2012-06-17T15:44:30Z</time>
      </trkpt>
      <trkpt lat="48.7734" lon="2.13174">
        <ele>102.04</ele>
        <time>2012-06-17T15:44:41Z</time>
      </trkpt>
      <trkpt lat="48.77331" lon="2.13191">
        <ele>102.04</ele>
        <time>2012-06-17T15:44:54Z</time>
      </trkpt>
      <trkpt lat="48.7733" lon="2.13193">
        <ele>101.56</ele>
        <time>2012-06-17T15:44:55Z</time>
      </trkpt>
      <trkpt lat="48.77323" lon="2.13198">
        <ele>102.52</ele>
        <time>2012-06-17T15:45:05Z</time>
      </trkpt>
      <trkpt lat="48.77318" lon="2.13202">
        <ele>102.52</ele>
        <time>2012-06-17T15:45:08Z</time>
      </trkpt>
      <trkpt lat="48.77308" lon="2.13214">
        <ele>103</ele>
        <time>2012-06-17T15:45:23Z</time>
      </trkpt>
      <trkpt lat="48.77307" lon="2.13218">
        <ele>103.48</ele>
        <time>2012-06-17T15:45:40Z</time>
      </trkpt>
      <trkpt lat="48.77294" lon="2.13225">
        <ele>104.44</ele>
        <time>2012-06-17T15:45:52Z</time>
      </trkpt>
      <trkpt lat="48.7728" lon="2.13223">
        <ele>104.92</ele>
        <time>2012-06-17T15:46:04Z</time>
      </trkpt>
      <trkpt lat="48.77258" lon="2.13217">
        <ele>105.88</ele>
        <time>2012-06-17T15:46:17Z</time>
      </trkpt>
      <trkpt lat="48.77247" lon="2.13204">
        <ele>106.36</ele>
        <time>2012-06-17T15:46:29Z</time>
      </trkpt>
      <trkpt lat="48.77243" lon="2.13197">
        <ele>106.36</ele>
        <time>2012-06-17T15:46:35Z</time>
      </trkpt>
      <trkpt lat="48.77242" lon="2.13189">
        <ele>106.84</ele>
        <time>2012-06-17T15:46:39Z</time>
      </trkpt>
      <trkpt lat="48.77238" lon="2.13158">
        <ele>107.32</ele>
        <time>2012-06-17T15:46:50Z</time>
      </trkpt>
      <trkpt lat="48.77233" lon="2.13151">
        <ele>107.32</ele>
        <time>2012-06-17T15:46:56Z</time>
      </trkpt>
      <trkpt lat="48.77223" lon="2.13147">
        <ele>108.77</ele>
        <time>2012-06-17T15:47:06Z</time>
      </trkpt>
      <trkpt lat="48.77213" lon="2.1314">
        <ele>110.69</ele>
        <time>2012-06-17T15:47:17Z</time>
      </trkpt>
      <trkpt lat="48.77212" lon="2.13137">
        <ele>110.69</ele>
        <time>2012-06-17T15:47:20Z</time>
      </trkpt>
      <trkpt lat="48.77205" lon="2.13123">
        <ele>113.09</ele>
        <time>2012-06-17T15:47:33Z</time>
      </trkpt>
      <trkpt lat="48.77199" lon="2.13116">
        <ele>114.05</ele>
        <time>2012-06-17T15:47:40Z</time>
      </trkpt>
      <trkpt lat="48.77194" lon="2.13109">
        <ele>115.01</ele>
        <time>2012-06-17T15:47:47Z</time>
      </trkpt>
      <trkpt lat="48.77183" lon="2.13094">
        <ele>115.5</ele>
        <time>2012-06-17T15:48:00Z</time>
      </trkpt>
      <trkpt lat="48.77181" lon="2.13091">
        <ele>116.46</ele>
        <time>2012-06-17T15:48:02Z</time>
      </trkpt>
      <trkpt lat="48.7717" lon="2.13081">
        <ele>116.46</ele>
        <time>2012-06-17T15:48:11Z</time>
      </trkpt>
      <trkpt lat="48.77168" lon="2.1308">
        <ele>116.94</ele>
        <time>2012-06-17T15:48:13Z</time>
      </trkpt>
      <trkpt lat="48.77156" lon="2.13068">
        <ele>117.9</ele>
        <time>2012-06-17T15:48:25Z</time>
      </trkpt>
      <trkpt lat="48.77146" lon="2.13062">
        <ele>119.82</ele>
        <time>2012-06-17T15:48:37Z</time>
      </trkpt>
      <trkpt lat="48.77144" lon="2.13061">
        <ele>120.3</ele>
        <time>2012-06-17T15:48:40Z</time>
      </trkpt>
      <trkpt lat="48.7714" lon="2.13062">
        <ele>120.78</ele>
        <time>2012-06-17T15:48:42Z</time>
      </trkpt>
      <trkpt lat="48.7713" lon="2.13062">
        <ele>122.22</ele>
        <time>2012-06-17T15:48:55Z</time>
      </trkpt>
      <trkpt lat="48.7713" lon="2.13064">
        <ele>122.71</ele>
        <time>2012-06-17T15:49:11Z</time>
      </trkpt>
      <trkpt lat="48.7713" lon="2.13064">
        <ele>122.71</ele>
        <time>2012-06-17T15:49:34Z</time>
      </trkpt>
      <trkpt lat="48.77131" lon="2.13069">
        <ele>123.19</ele>
        <time>2012-06-17T15:49:52Z</time>
      </trkpt>
      <trkpt lat="48.77135" lon="2.13096">
        <ele>125.11</ele>
        <time>2012-06-17T15:50:05Z</time>
      </trkpt>
      <trkpt lat="48.77137" lon="2.13108">
        <ele>126.07</ele>
        <time>2012-06-17T15:50:12Z</time>
      </trkpt>
      <trkpt lat="48.77134" lon="2.13129">
        <ele>127.03</ele>
        <time>2012-06-17T15:50:24Z</time>
      </trkpt>
      <trkpt lat="48.77135" lon="2.13133">
        <ele>126.55</ele>
        <time>2012-06-17T15:50:26Z</time>
      </trkpt>
      <trkpt lat="48.77137" lon="2.13151">
        <ele>126.07</ele>
        <time>2012-06-17T15:50:36Z</time>
      </trkpt>
      <trkpt lat="48.77142" lon="2.13164">
        <ele>125.59</ele>
        <time>2012-06-17T15:50:46Z</time>
      </trkpt>
      <trkpt lat="48.77145" lon="2.13169">
        <ele>125.11</ele>
        <time>2012-06-17T15:50:49Z</time>
      </trkpt>
      <trkpt lat="48.77153" lon="2.13188">
        <ele>124.63</ele>
        <time>2012-06-17T15:51:01Z</time>
      </trkpt>
      <trkpt lat="48.77154" lon="2.1319">
        <ele>125.11</ele>
        <time>2012-06-17T15:51:02Z</time>
      </trkpt>
      <trkpt lat="48.77159" lon="2.1321">
        <ele>125.59</ele>
        <time>2012-06-17T15:51:15Z</time>
      </trkpt>
      <trkpt lat="48.77159" lon="2.13214">
        <ele>125.59</ele>
        <time>2012-06-17T15:51:33Z</time>
      </trkpt>
      <trkpt lat="48.77159" lon="2.13218">
        <ele>126.07</ele>
        <time>2012-06-17T15:51:42Z</time>
      </trkpt>
      <trkpt lat="48.77156" lon="2.13222">
        <ele>126.07</ele>
        <time>2012-06-17T15:51:45Z</time>
      </trkpt>
      <trkpt lat="48.77152" lon="2.13223">
        <ele>126.07</ele>
        <time>2012-06-17T15:51:49Z</time>
      </trkpt>
      <trkpt lat="48.77149" lon="2.13223">
        <ele>126.07</ele>
        <time>2012-06-17T15:51:52Z</time>
      </trkpt>
      <trkpt lat="48.77146" lon="2.13222">
        <ele>125.11</ele>
        <time>2012-06-17T15:51:56Z</time>
      </trkpt>
      <trkpt lat="48.7714" lon="2.13222">
        <ele>123.67</ele>
        <time>2012-06-17T15:52:02Z</time>
      </trkpt>
      <trkpt lat="48.77137" lon="2.13231">
        <ele>123.19</ele>
        <time>2012-06-17T15:52:14Z</time>
      </trkpt>
      <trkpt lat="48.77143" lon="2.13248">
        <ele>122.71</ele>
        <time>2012-06-17T15:52:28Z</time>
      </trkpt>
      <trkpt lat="48.77141" lon="2.13248">
        <ele>122.71</ele>
        <time>2012-06-17T15:52:42Z</time>
      </trkpt>
      <trkpt lat="48.77141" lon="2.13248">
        <ele>122.71</ele>
        <time>2012-06-17T15:53:04Z</time>
      </trkpt>
      <trkpt lat="48.77141" lon="2.13248">
        <ele>122.71</ele>
        <time>2012-06-17T15:53:32Z</time>
      </trkpt>
      <trkpt lat="48.77141" lon="2.13248">
        <ele>122.71</ele>
        <time>2012-06-17T15:53:55Z</time>
      </trkpt>
      <trkpt lat="48.77137" lon="2.13263">
        <ele>121.74</ele>
        <time>2012-06-17T15:54:07Z</time>
      </trkpt>
      <trkpt lat="48.77131" lon="2.13282">
        <ele>120.3</ele>
        <time>2012-06-17T15:54:22Z</time>
      </trkpt>
      <trkpt lat="48.7713" lon="2.13287">
        <ele>119.82</ele>
        <time>2012-06-17T15:54:26Z</time>
      </trkpt>
      <trkpt lat="48.77124" lon="2.13305">
        <ele>118.38</ele>
        <time>2012-06-17T15:54:38Z</time>
      </trkpt>
      <trkpt lat="48.77121" lon="2.13316">
        <ele>117.9</ele>
        <time>2012-06-17T15:54:44Z</time>
      </trkpt>
      <trkpt lat="48.77118" lon="2.13329">
        <ele>116.94</ele>
        <time>2012-06-17T15:54:50Z</time>
      </trkpt>
      <trkpt lat="48.77115" lon="2.13351">
        <ele>116.46</ele>
        <time>2012-06-17T15:55:02Z</time>
      </trkpt>
      <trkpt lat="48.7711" lon="2.13372">
        <ele>115.01</ele>
        <time>2012-06-17T15:55:15Z</time>
      </trkpt>
      <trkpt lat="48.77106" lon="2.13388">
        <ele>114.05</ele>
        <time>2012-06-17T15:55:25Z</time>
      </trkpt>
      <trkpt lat="48.77101" lon="2.13409">
        <ele>113.09</ele>
        <time>2012-06-17T15:55:37Z</time>
      </trkpt>
      <trkpt lat="48.77099" lon="2.13418">
        <ele>112.61</ele>
        <time>2012-06-17T15:55:42Z</time>
      </trkpt>
      <trkpt lat="48.77096" lon="2.13443">
        <ele>111.65</ele>
        <time>2012-06-17T15:55:56Z</time>
      </trkpt>
      <trkpt lat="48.77093" lon="2.13464">
        <ele>111.17</ele>
        <time>2012-06-17T15:56:08Z</time>
      </trkpt>
      <trkpt lat="48.77085" lon="2.13492">
        <ele>110.69</ele>
        <time>2012-06-17T15:56:23Z</time>
      </trkpt>
      <trkpt lat="48.77081" lon="2.13504">
        <ele>110.69</ele>
        <time>2012-06-17T15:56:30Z</time>
      </trkpt>
      <trkpt lat="48.77077" lon="2.13519">
        <ele>110.69</ele>
        <time>2012-06-17T15:56:41Z</time>
      </trkpt>
      <trkpt lat="48.77074" lon="2.13535">
        <ele>112.13</ele>
        <time>2012-06-17T15:56:53Z</time>
      </trkpt>
      <trkpt lat="48.77073" lon="2.13545">
        <ele>113.09</ele>
        <time>2012-06-17T15:57:01Z</time>
      </trkpt>
      <trkpt lat="48.77069" lon="2.13569">
        <ele>115.01</ele>
        <time>2012-06-17T15:57:15Z</time>
      </trkpt>
      <trkpt lat="48.77068" lon="2.13582">
        <ele>115.98</ele>
        <time>2012-06-17T15:57:23Z</time>
      </trkpt>
      <trkpt lat="48.77065" lon="2.13602">
        <ele>117.9</ele>
        <time>2012-06-17T15:57:34Z</time>
      </trkpt>
      <trkpt lat="48.77064" lon="2.13604">
        <ele>117.42</ele>
        <time>2012-06-17T15:57:36Z</time>
      </trkpt>
      <trkpt lat="48.77064" lon="2.13608">
        <ele>117.42</ele>
        <time>2012-06-17T15:57:38Z</time>
      </trkpt>
      <trkpt lat="48.7706" lon="2.13627">
        <ele>115.98</ele>
        <time>2012-06-17T15:57:51Z</time>
      </trkpt>
      <trkpt lat="48.77057" lon="2.13641">
        <ele>115.98</ele>
        <time>2012-06-17T15:58:00Z</time>
      </trkpt>
      <trkpt lat="48.77054" lon="2.13654">
        <ele>115.01</ele>
        <time>2012-06-17T15:58:08Z</time>
      </trkpt>
      <trkpt lat="48.77048" lon="2.13672">
        <ele>114.53</ele>
        <time>2012-06-17T15:58:21Z</time>
      </trkpt>
      <trkpt lat="48.77046" lon="2.13676">
        <ele>114.53</ele>
        <time>2012-06-17T15:58:39Z</time>
      </trkpt>
      <trkpt lat="48.77043" lon="2.13698">
        <ele>113.09</ele>
        <time>2012-06-17T15:58:54Z</time>
      </trkpt>
      <trkpt lat="48.7704" lon="2.13707">
        <ele>112.13</ele>
        <time>2012-06-17T15:59:00Z</time>
      </trkpt>
      <trkpt lat="48.77031" lon="2.1372">
        <ele>111.65</ele>
        <time>2012-06-17T15:59:11Z</time>
      </trkpt>
      <trkpt lat="48.77028" lon="2.13722">
        <ele>112.13</ele>
        <time>2012-06-17T15:59:16Z</time>
      </trkpt>
      <trkpt lat="48.77017" lon="2.13723">
        <ele>112.13</ele>
        <time>2012-06-17T15:59:27Z</time>
      </trkpt>
      <trkpt lat="48.77006" lon="2.13726">
        <ele>112.13</ele>
        <time>2012-06-17T15:59:34Z</time>
      </trkpt>
      <trkpt lat="48.77005" lon="2.13726">
        <ele>112.61</ele>
        <time>2012-06-17T15:59:36Z</time>
      </trkpt>
      <trkpt lat="48.76993" lon="2.13737">
        <ele>114.05</ele>
        <time>2012-06-17T15:59:48Z</time>
      </trkpt>
      <trkpt lat="48.76988" lon="2.13746">
        <ele>113.57</ele>
        <time>2012-06-17T15:59:59Z</time>
      </trkpt>
      <trkpt lat="48.76983" lon="2.13768">
        <ele>114.05</ele>
        <time>2012-06-17T16:00:11Z</time>
      </trkpt>
      <trkpt lat="48.7698" lon="2.1379">
        <ele>115.5</ele>
        <time>2012-06-17T16:00:24Z</time>
      </trkpt>
      <trkpt lat="48.76976" lon="2.13802">
        <ele>115.98</ele>
        <time>2012-06-17T16:00:32Z</time>
      </trkpt>
      <trkpt lat="48.76972" lon="2.13811">
        <ele>116.46</ele>
        <time>2012-06-17T16:00:38Z</time>
      </trkpt>
      <trkpt lat="48.7697" lon="2.13816">
        <ele>116.94</ele>
        <time>2012-06-17T16:00:41Z</time>
      </trkpt>
      <trkpt lat="48.76968" lon="2.13822">
        <ele>116.94</ele>
        <time>2012-06-17T16:00:46Z</time>
      </trkpt>
      <trkpt lat="48.76961" lon="2.13836">
        <ele>115.98</ele>
        <time>2012-06-17T16:00:57Z</time>
      </trkpt>
      <trkpt lat="48.7696" lon="2.13841">
        <ele>115.5</ele>
        <time>2012-06-17T16:01:00Z</time>
      </trkpt>
      <trkpt lat="48.76956" lon="2.13854">
        <ele>114.53</ele>
        <time>2012-06-17T16:01:07Z</time>
      </trkpt>
      <trkpt lat="48.76955" lon="2.13881">
        <ele>112.61</ele>
        <time>2012-06-17T16:01:21Z</time>
      </trkpt>
      <trkpt lat="48.76958" lon="2.13903">
        <ele>111.65</ele>
        <time>2012-06-17T16:01:35Z</time>
      </trkpt>
      <trkpt lat="48.76959" lon="2.13924">
        <ele>110.21</ele>
        <time>2012-06-17T16:01:47Z</time>
      </trkpt>
      <trkpt lat="48.76965" lon="2.1394">
        <ele>108.77</ele>
        <time>2012-06-17T16:02:00Z</time>
      </trkpt>
      <trkpt lat="48.76974" lon="2.13952">
        <ele>106.84</ele>
        <time>2012-06-17T16:02:12Z</time>
      </trkpt>
      <trkpt lat="48.76984" lon="2.13965">
        <ele>105.88</ele>
        <time>2012-06-17T16:02:24Z</time>
      </trkpt>
      <trkpt lat="48.76991" lon="2.13981">
        <ele>103.96</ele>
        <time>2012-06-17T16:02:36Z</time>
      </trkpt>
      <trkpt lat="48.76992" lon="2.13984">
        <ele>104.44</ele>
        <time>2012-06-17T16:02:38Z</time>
      </trkpt>
      <trkpt lat="48.76995" lon="2.13995">
        <ele>102.52</ele>
        <time>2012-06-17T16:02:43Z</time>
      </trkpt>
      <trkpt lat="48.76997" lon="2.14001">
        <ele>102.52</ele>
        <time>2012-06-17T16:02:47Z</time>
      </trkpt>
      <trkpt lat="48.77012" lon="2.14016">
        <ele>101.08</ele>
        <time>2012-06-17T16:03:00Z</time>
      </trkpt>
      <trkpt lat="48.77016" lon="2.14023">
        <ele>101.08</ele>
        <time>2012-06-17T16:03:05Z</time>
      </trkpt>
      <trkpt lat="48.77028" lon="2.14039">
        <ele>99.15</ele>
        <time>2012-06-17T16:03:18Z</time>
      </trkpt>
      <trkpt lat="48.77033" lon="2.14046">
        <ele>99.15</ele>
        <time>2012-06-17T16:03:25Z</time>
      </trkpt>
      <trkpt lat="48.77037" lon="2.14051">
        <ele>98.67</ele>
        <time>2012-06-17T16:03:29Z</time>
      </trkpt>
      <trkpt lat="48.77043" lon="2.1406">
        <ele>98.67</ele>
        <time>2012-06-17T16:03:36Z</time>
      </trkpt>
      <trkpt lat="48.77047" lon="2.14066">
        <ele>98.67</ele>
        <time>2012-06-17T16:03:41Z</time>
      </trkpt>
      <trkpt lat="48.77052" lon="2.14072">
        <ele>98.19</ele>
        <time>2012-06-17T16:03:47Z</time>
      </trkpt>
      <trkpt lat="48.77057" lon="2.14078">
        <ele>97.71</ele>
        <time>2012-06-17T16:03:52Z</time>
      </trkpt>
      <trkpt lat="48.77068" lon="2.14094">
        <ele>97.23</ele>
        <time>2012-06-17T16:04:06Z</time>
      </trkpt>
      <trkpt lat="48.77078" lon="2.14108">
        <ele>96.75</ele>
        <time>2012-06-17T16:04:19Z</time>
      </trkpt>
      <trkpt lat="48.77087" lon="2.14111">
        <ele>96.75</ele>
        <time>2012-06-17T16:04:29Z</time>
      </trkpt>
      <trkpt lat="48.77104" lon="2.14108">
        <ele>97.23</ele>
        <time>2012-06-17T16:04:44Z</time>
      </trkpt>
      <trkpt lat="48.77118" lon="2.14101">
        <ele>97.23</ele>
        <time>2012-06-17T16:04:57Z</time>
      </trkpt>
      <trkpt lat="48.77122" lon="2.14103">
        <ele>97.23</ele>
        <time>2012-06-17T16:05:01Z</time>
      </trkpt>
      <trkpt lat="48.7712" lon="2.14124">
        <ele>98.67</ele>
        <time>2012-06-17T16:05:15Z</time>
      </trkpt>
      <trkpt lat="48.77118" lon="2.14131">
        <ele>98.19</ele>
        <time>2012-06-17T16:05:20Z</time>
      </trkpt>
      <trkpt lat="48.77117" lon="2.14137">
        <ele>98.67</ele>
        <time>2012-06-17T16:05:23Z</time>
      </trkpt>
      <trkpt lat="48.77111" lon="2.14157">
        <ele>98.19</ele>
        <time>2012-06-17T16:05:37Z</time>
      </trkpt>
      <trkpt lat="48.77105" lon="2.14171">
        <ele>97.23</ele>
        <time>2012-06-17T16:05:49Z</time>
      </trkpt>
      <trkpt lat="48.77092" lon="2.14197">
        <ele>97.71</ele>
        <time>2012-06-17T16:06:03Z</time>
      </trkpt>
      <trkpt lat="48.77082" lon="2.14214">
        <ele>97.71</ele>
        <time>2012-06-17T16:06:17Z</time>
      </trkpt>
      <trkpt lat="48.77082" lon="2.14216">
        <ele>96.75</ele>
        <time>2012-06-17T16:06:18Z</time>
      </trkpt>
      <trkpt lat="48.77072" lon="2.14245">
        <ele>96.75</ele>
        <time>2012-06-17T16:06:33Z</time>
      </trkpt>
      <trkpt lat="48.7706" lon="2.14268">
        <ele>97.23</ele>
        <time>2012-06-17T16:06:49Z</time>
      </trkpt>
      <trkpt lat="48.77051" lon="2.14291">
        <ele>97.71</ele>
        <time>2012-06-17T16:07:04Z</time>
      </trkpt>
      <trkpt lat="48.77042" lon="2.14316">
        <ele>97.23</ele>
        <time>2012-06-17T16:07:19Z</time>
      </trkpt>
      <trkpt lat="48.7704" lon="2.14329">
        <ele>97.23</ele>
        <time>2012-06-17T16:07:31Z</time>
      </trkpt>
      <trkpt lat="48.77036" lon="2.14333">
        <ele>97.23</ele>
        <time>2012-06-17T16:07:33Z</time>
      </trkpt>
      <trkpt lat="48.77033" lon="2.14339">
        <ele>97.23</ele>
        <time>2012-06-17T16:07:37Z</time>
      </trkpt>
      <trkpt lat="48.77024" lon="2.14358">
        <ele>97.23</ele>
        <time>2012-06-17T16:07:49Z</time>
      </trkpt>
      <trkpt lat="48.77019" lon="2.14371">
        <ele>96.75</ele>
        <time>2012-06-17T16:07:58Z</time>
      </trkpt>
      <trkpt lat="48.77012" lon="2.14391">
        <ele>97.23</ele>
        <time>2012-06-17T16:08:10Z</time>
      </trkpt>
      <trkpt lat="48.77006" lon="2.1442">
        <ele>96.75</ele>
        <time>2012-06-17T16:08:23Z</time>
      </trkpt>
      <trkpt lat="48.76998" lon="2.14438">
        <ele>96.75</ele>
        <time>2012-06-17T16:08:36Z</time>
      </trkpt>
      <trkpt lat="48.76991" lon="2.14456">
        <ele>96.75</ele>
        <time>2012-06-17T16:08:47Z</time>
      </trkpt>
      <trkpt lat="48.76989" lon="2.14463">
        <ele>97.23</ele>
        <time>2012-06-17T16:08:52Z</time>
      </trkpt>
      <trkpt lat="48.76988" lon="2.14468">
        <ele>97.71</ele>
        <time>2012-06-17T16:08:54Z</time>
      </trkpt>
      <trkpt lat="48.76978" lon="2.14497">
        <ele>97.23</ele>
        <time>2012-06-17T16:09:11Z</time>
      </trkpt>
      <trkpt lat="48.7698" lon="2.14504">
        <ele>97.71</ele>
        <time>2012-06-17T16:09:20Z</time>
      </trkpt>
      <trkpt lat="48.76994" lon="2.14522">
        <ele>98.19</ele>
        <time>2012-06-17T16:09:36Z</time>
      </trkpt>
      <trkpt lat="48.77003" lon="2.14531">
        <ele>97.23</ele>
        <time>2012-06-17T16:09:45Z</time>
      </trkpt>
      <trkpt lat="48.77007" lon="2.14536">
        <ele>97.71</ele>
        <time>2012-06-17T16:09:49Z</time>
      </trkpt>
      <trkpt lat="48.77009" lon="2.1454">
        <ele>97.71</ele>
        <time>2012-06-17T16:09:52Z</time>
      </trkpt>
      <trkpt lat="48.77013" lon="2.14546">
        <ele>97.71</ele>
        <time>2012-06-17T16:09:58Z</time>
      </trkpt>
      <trkpt lat="48.77015" lon="2.14549">
        <ele>97.23</ele>
        <time>2012-06-17T16:10:00Z</time>
      </trkpt>
      <trkpt lat="48.77018" lon="2.14551">
        <ele>97.71</ele>
        <time>2012-06-17T16:10:03Z</time>
      </trkpt>
      <trkpt lat="48.77024" lon="2.14562">
        <ele>97.71</ele>
        <time>2012-06-17T16:10:10Z</time>
      </trkpt>
      <trkpt lat="48.7703" lon="2.14587">
        <ele>97.71</ele>
        <time>2012-06-17T16:10:24Z</time>
      </trkpt>
      <trkpt lat="48.77041" lon="2.14605">
        <ele>98.67</ele>
        <time>2012-06-17T16:10:38Z</time>
      </trkpt>
      <trkpt lat="48.77051" lon="2.14625">
        <ele>99.15</ele>
        <time>2012-06-17T16:10:52Z</time>
      </trkpt>
      <trkpt lat="48.77061" lon="2.14644">
        <ele>99.63</ele>
        <time>2012-06-17T16:11:07Z</time>
      </trkpt>
      <trkpt lat="48.77065" lon="2.14649">
        <ele>100.11</ele>
        <time>2012-06-17T16:11:22Z</time>
      </trkpt>
      <trkpt lat="48.77065" lon="2.14649">
        <ele>100.11</ele>
        <time>2012-06-17T16:11:38Z</time>
      </trkpt>
      <trkpt lat="48.77064" lon="2.1465">
        <ele>100.11</ele>
        <time>2012-06-17T16:11:58Z</time>
      </trkpt>
      <trkpt lat="48.77064" lon="2.1465">
        <ele>99.63</ele>
        <time>2012-06-17T16:12:18Z</time>
      </trkpt>
    </trkseg>
  </trk>
</gpx>